Observation data for Clyde on 05/26/2019      Previous  Date  Next       Current Mesonet Observations  Soil Data  Daily Summary Page  Observations in Plain Language
KCL2 260500Z 16018G23KT 24/20 A2996 RMK A01 T02400200  RH  078%=      5-min Rain = 0
KCL2 260501Z 16016G23KT 24/20 A2996 RMK A01 T02400200  RH  078%=      5-min Rain = 0
KCL2 260502Z 16017KT 24/20 A2996 RMK A01 T02400200  RH  079%=      5-min Rain = 0
KCL2 260503Z 16018G23KT 24/20 A2996 RMK A01 T02390200  RH  079%=      5-min Rain = 0
KCL2 260504Z 16016G22KT 24/20 A2995 RMK A01 T02390200  RH  079%=      5-min Rain = 0
KCL2 260505Z 15014G19KT 24/20 A2996 RMK A01 T02390200  RH  079%=      5-min Rain = 0
KCL2 260506Z 16015KT 24/20 A2996 RMK A01 T02380200  RH  079%=      5-min Rain = 0
KCL2 260507Z 16011KT 24/20 A2996 RMK A01 T02380200  RH  079%=      5-min Rain = 0
KCL2 260508Z 16014KT 24/20 A2996 RMK A01 T02380200  RH  079%=      5-min Rain = 0
KCL2 260509Z 16013KT 24/20 A2996 RMK A01 T02380200  RH  079%=      5-min Rain = 0
KCL2 260510Z 16016KT 24/20 A2996 RMK A01 T02380200  RH  079%=      5-min Rain = 0
KCL2 260511Z 16014KT 24/20 A2996 RMK A01 T02370200  RH  079%=      5-min Rain = 0
KCL2 260512Z 16014G19KT 24/20 A2996 RMK A01 T02370200  RH  079%=      5-min Rain = 0
KCL2 260513Z 15015G20KT 24/20 A2996 RMK A01 T02370200  RH  079%=      5-min Rain = 0
KCL2 260514Z 16016KT 24/20 A2995 RMK A01 T02370200  RH  080%=      5-min Rain = 0
KCL2 260515Z 16017KT 24/20 A2995 RMK A01 T02370199  RH  079%=      5-min Rain = 0
KCL2 260516Z 16014KT 24/20 A2995 RMK A01 T02370199  RH  079%=      5-min Rain = 0
KCL2 260517Z 16015G20KT 24/20 A2995 RMK A01 T02360199  RH  079%=      5-min Rain = 0
KCL2 260518Z 16013G18KT 24/20 A2995 RMK A01 T02360199  RH  080%=      5-min Rain = 0
KCL2 260519Z 17016KT 24/20 A2995 RMK A01 T02360199  RH  080%=      5-min Rain = 0
KCL2 260520Z 16014KT 24/20 A2995 RMK A01 T02360198  RH  079%=      5-min Rain = 0
KCL2 260521Z 16017G24KT 24/20 A2995 RMK A01 T02360198  RH  079%=      5-min Rain = 0
KCL2 260522Z 16017KT 24/20 A2995 RMK A01 T02360198  RH  079%=      5-min Rain = 0
KCL2 260523Z 17014G19KT 24/20 A2995 RMK A01 T02360198  RH  079%=      5-min Rain = 0
KCL2 260524Z 16015G20KT 24/20 A2995 RMK A01 T02360198  RH  079%=      5-min Rain = 0
KCL2 260525Z 16016G22KT 24/20 A2995 RMK A01 T02360198  RH  079%=      5-min Rain = 0
KCL2 260526Z 16017KT 24/20 A2995 RMK A01 T02360198  RH  079%=      5-min Rain = 0
KCL2 260527Z 16013KT 24/20 A2995 RMK A01 T02360198  RH  079%=      5-min Rain = 0
KCL2 260528Z 16016G21KT 24/20 A2996 RMK A01 T02360198  RH  079%=      5-min Rain = 0
KCL2 260529Z 16017G23KT 24/20 A2995 RMK A01 T02360197  RH  079%=      5-min Rain = 0
KCL2 260530Z 17017KT 24/20 A2995 RMK A01 T02360197  RH  079%=      5-min Rain = 0
KCL2 260531Z 17016G21KT 24/20 A2995 RMK A01 T02360197  RH  079%=      5-min Rain = 0
KCL2 260532Z 16015G22KT 24/20 A2995 RMK A01 T02360197  RH  079%=      5-min Rain = 0
KCL2 260533Z 16018G23KT 24/20 A2995 RMK A01 T02360197  RH  079%=      5-min Rain = 0
KCL2 260534Z 16017G22KT 24/20 A2995 RMK A01 T02360198  RH  079%=      5-min Rain = 0
KCL2 260535Z 16019KT 24/20 A2995 RMK A01 T02350197  RH  079%=      5-min Rain = 0
KCL2 260536Z 16015G22KT 24/20 A2995 RMK A01 T02350197  RH  079%=      5-min Rain = 0
KCL2 260537Z 16017G22KT 24/20 A2995 RMK A01 T02350197  RH  079%=      5-min Rain = 0
KCL2 260538Z 16017KT 24/20 A2995 RMK A01 T02350197  RH  079%=      5-min Rain = 0
KCL2 260539Z 16013KT 24/20 A2995 RMK A01 T02350197  RH  079%=      5-min Rain = 0
KCL2 260540Z 16018KT 24/20 A2995 RMK A01 T02350197  RH  079%=      5-min Rain = 0
KCL2 260541Z 16019KT 23/20 A2995 RMK A01 T02340197  RH  079%=      5-min Rain = 0
KCL2 260542Z 17013KT 23/20 A2995 RMK A01 T02340197  RH  079%=      5-min Rain = 0
KCL2 260543Z 16017G23KT 23/20 A2995 RMK A01 T02340196  RH  079%=      5-min Rain = 0
KCL2 260544Z 17013G18KT 23/20 A2995 RMK A01 T02340196  RH  079%=      5-min Rain = 0
KCL2 260545Z 16018G24KT 23/20 A2995 RMK A01 T02340196  RH  079%=      5-min Rain = 0
KCL2 260546Z 16019G24KT 23/20 A2995 RMK A01 T02340196  RH  079%=      5-min Rain = 0
KCL2 260547Z 17016G21KT 23/20 A2995 RMK A01 T02340196  RH  079%=      5-min Rain = 0
KCL2 260548Z 17017G24KT 24/20 A2995 RMK A01 T02350196  RH  079%=      5-min Rain = 0
KCL2 260549Z 17019G24KT 23/20 A2995 RMK A01 T02340196  RH  079%=      5-min Rain = 0
KCL2 260550Z 16015KT 23/20 A2995 RMK A01 T02340195  RH  079%=      5-min Rain = 0
KCL2 260551Z 16017KT 23/20 A2995 RMK A01 T02340195  RH  079%=      5-min Rain = 0
KCL2 260552Z 17019KT 23/20 A2995 RMK A01 T02340195  RH  079%=      5-min Rain = 0
KCL2 260553Z 17018G26KT 23/20 A2995 RMK A01 T02340195  RH  079%=      5-min Rain = 0
KCL2 260554Z 17022KT 23/20 A2995 RMK A01 T02340195  RH  079%=      5-min Rain = 0
KCL2 260555Z 17016KT 23/20 A2995 RMK A01 T02340195  RH  079%=      5-min Rain = 0
KCL2 260556Z 17017KT 23/19 A2995 RMK A01 T02340194  RH  079%=      5-min Rain = 0
KCL2 260557Z 17017G23KT 23/20 A2995 RMK A01 T02340195  RH  079%=      5-min Rain = 0
KCL2 260558Z 17020KT 23/19 A2995 RMK A01 T02330194  RH  079%=      5-min Rain = 0
KCL2 260559Z 17019G24KT 23/20 A2995 RMK A01 T02340195  RH  079%=      5-min Rain = 0
KCL2 260600Z 16020G28KT 23/19 A2995 RMK A01 T02330194  RH  079%=      5-min Rain = 0
KCL2 260601Z 17022KT 23/19 A2995 RMK A01 T02330194  RH  079%=      5-min Rain = 0
KCL2 260602Z 17018G23KT 23/19 A2995 RMK A01 T02330194  RH  079%=      5-min Rain = 0
KCL2 260603Z 17018G24KT 23/19 A2995 RMK A01 T02340194  RH  079%=      5-min Rain = 0
KCL2 260604Z 16016G22KT 23/19 A2995 RMK A01 T02330194  RH  079%=      5-min Rain = 0
KCL2 260605Z 17018G23KT 23/19 A2995 RMK A01 T02330194  RH  079%=      5-min Rain = 0
KCL2 260606Z 16018G24KT 23/19 A2995 RMK A01 T02320194  RH  079%=      5-min Rain = 0
KCL2 260607Z 17017G23KT 23/19 A2995 RMK A01 T02320194  RH  079%=      5-min Rain = 0
KCL2 260608Z 17015KT 23/19 A2995 RMK A01 T02320194  RH  079%=      5-min Rain = 0
KCL2 260609Z 17018G23KT 23/19 A2995 RMK A01 T02320194  RH  079%=      5-min Rain = 0
KCL2 260610Z 16016KT 23/19 A2995 RMK A01 T02320194  RH  079%=      5-min Rain = 0
KCL2 260611Z 17017KT 23/19 A2995 RMK A01 T02310194  RH  080%=      5-min Rain = 0
KCL2 260612Z 17017KT 23/19 A2995 RMK A01 T02310194  RH  080%=      5-min Rain = 0
KCL2 260613Z 17015G21KT 23/19 A2995 RMK A01 T02310194  RH  080%=      5-min Rain = 0
KCL2 260614Z 17020KT 23/19 A2995 RMK A01 T02300194  RH  080%=      5-min Rain = 0
KCL2 260615Z 17020KT 23/19 A2995 RMK A01 T02300194  RH  080%=      5-min Rain = 0
KCL2 260616Z 16015KT 23/19 A2995 RMK A01 T02310194  RH  080%=      5-min Rain = 0
KCL2 260617Z 17021KT 23/19 A2995 RMK A01 T02300194  RH  080%=      5-min Rain = 0
KCL2 260618Z 17018G25KT 23/19 A2995 RMK A01 T02300194  RH  080%=      5-min Rain = 0
KCL2 260619Z 16022KT 23/19 A2995 RMK A01 T02300194  RH  080%=      5-min Rain = 0
KCL2 260620Z 17020G26KT 23/19 A2995 RMK A01 T02300194  RH  080%=      5-min Rain = 0
KCL2 260621Z 17022G27KT 23/19 A2995 RMK A01 T02300194  RH  080%=      5-min Rain = 0
KCL2 260622Z 17018KT 23/19 A2995 RMK A01 T02300194  RH  080%=      5-min Rain = 0
KCL2 260623Z 17020KT 23/19 A2995 RMK A01 T02300194  RH  080%=      5-min Rain = 0
KCL2 260624Z 17019G25KT 23/19 A2995 RMK A01 T02300194  RH  080%=      5-min Rain = 0
KCL2 260625Z 17015KT 23/19 A2995 RMK A01 T02300194  RH  080%=      5-min Rain = 0
KCL2 260626Z 17016G21KT 23/19 A2995 RMK A01 T02290194  RH  081%=      5-min Rain = 0
KCL2 260627Z 17019G25KT 23/19 A2995 RMK A01 T02290194  RH  081%=      5-min Rain = 0
KCL2 260628Z 17019G24KT 23/19 A2995 RMK A01 T02290194  RH  081%=      5-min Rain = 0
KCL2 260629Z 17015KT 23/19 A2995 RMK A01 T02280194  RH  081%=      5-min Rain = 0
KCL2 260630Z 17019G24KT 23/19 A2995 RMK A01 T02280194  RH  081%=      5-min Rain = 0
KCL2 260631Z 17019G26KT 23/19 A2995 RMK A01 T02290194  RH  081%=      5-min Rain = 0
KCL2 260632Z 17017KT 23/19 A2995 RMK A01 T02280194  RH  081%=      5-min Rain = 0
KCL2 260633Z 17017G22KT 23/19 A2995 RMK A01 T02280194  RH  081%=      5-min Rain = 0
KCL2 260634Z 17018G24KT 23/19 A2995 RMK A01 T02280194  RH  081%=      5-min Rain = 0
KCL2 260635Z 17018G27KT 23/19 A2995 RMK A01 T02280194  RH  081%=      5-min Rain = 0
KCL2 260636Z 17022G28KT 23/19 A2995 RMK A01 T02280194  RH  081%=      5-min Rain = 0
KCL2 260637Z 17017KT 23/19 A2995 RMK A01 T02280194  RH  081%=      5-min Rain = 0
KCL2 260638Z 17021G29KT 23/19 A2995 RMK A01 T02280194  RH  081%=      5-min Rain = 0
KCL2 260639Z 16015KT 23/20 A2995 RMK A01 T02280195  RH  081%=      5-min Rain = 0
KCL2 260640Z 16018G23KT 23/19 A2995 RMK A01 T02280194  RH  081%=      5-min Rain = 0
KCL2 260641Z 17023G28KT 23/19 A2994 RMK A01 T02270194  RH  081%=      5-min Rain = 0
KCL2 260642Z 17020KT 23/19 A2994 RMK A01 T02280194  RH  081%=      5-min Rain = 0
KCL2 260643Z 16016KT 23/19 A2995 RMK A01 T02280194  RH  081%=      5-min Rain = 0
KCL2 260644Z 16021KT 23/20 A2995 RMK A01 T02280195  RH  082%=      5-min Rain = 0
KCL2 260645Z 16019G25KT 23/20 A2995 RMK A01 T02270195  RH  082%=      5-min Rain = 0
KCL2 260646Z 17019KT 23/20 A2995 RMK A01 T02280195  RH  082%=      5-min Rain = 0
KCL2 260647Z 17016KT 23/20 A2995 RMK A01 T02270195  RH  082%=      5-min Rain = 0
KCL2 260648Z 17016G25KT 23/20 A2995 RMK A01 T02270195  RH  082%=      5-min Rain = 0
KCL2 260649Z 17019KT 23/20 A2995 RMK A01 T02260195  RH  082%=      5-min Rain = 0
KCL2 260650Z 17020KT 23/20 A2995 RMK A01 T02260195  RH  082%=      5-min Rain = 0
KCL2 260651Z 17022KT 23/20 A2995 RMK A01 T02260195  RH  082%=      5-min Rain = 0
KCL2 260652Z 16017G23KT 23/20 A2995 RMK A01 T02260195  RH  082%=      5-min Rain = 0
KCL2 260653Z 17018KT 23/20 A2995 RMK A01 T02260195  RH  082%=      5-min Rain = 0
KCL2 260654Z 16015KT 23/20 A2995 RMK A01 T02260195  RH  083%=      5-min Rain = 0
KCL2 260655Z 17018G23KT 23/20 A2995 RMK A01 T02260195  RH  083%=      5-min Rain = 0
KCL2 260656Z 17019KT 23/20 A2995 RMK A01 T02250195  RH  083%=      5-min Rain = 0
KCL2 260657Z 17017G22KT 23/20 A2995 RMK A01 T02250195  RH  083%=      5-min Rain = 0
KCL2 260658Z 17019KT 23/20 A2995 RMK A01 T02250195  RH  083%=      5-min Rain = 0
KCL2 260659Z 17017KT 23/20 A2995 RMK A01 T02250195  RH  083%=      5-min Rain = 0
KCL2 260700Z 17016KT 23/20 A2995 RMK A01 T02250195  RH  083%=      5-min Rain = 0
KCL2 260701Z 17017G22KT 23/20 A2995 RMK A01 T02250195  RH  084%=      5-min Rain = 0
KCL2 260702Z 17020KT 23/20 A2995 RMK A01 T02250196  RH  084%=      5-min Rain = 0
KCL2 260703Z 17017KT 23/20 A2995 RMK A01 T02250195  RH  084%=      5-min Rain = 0
KCL2 260704Z 16016G24KT 22/20 A2995 RMK A01 T02240195  RH  084%=      5-min Rain = 0
KCL2 260705Z 17018KT 22/20 A2995 RMK A01 T02240196  RH  084%=      5-min Rain = 0
KCL2 260706Z 17017G22KT 22/20 A2995 RMK A01 T02240195  RH  084%=      5-min Rain = 0
KCL2 260707Z 17016G22KT 22/20 A2995 RMK A01 T02240195  RH  084%=      5-min Rain = 0
KCL2 260708Z 16016G22KT 22/20 A2995 RMK A01 T02240195  RH  084%=      5-min Rain = 0
KCL2 260709Z 17014KT 22/20 A2995 RMK A01 T02240196  RH  084%=      5-min Rain = 0
KCL2 260710Z 17014KT 22/20 A2995 RMK A01 T02230196  RH  084%=      5-min Rain = 0
KCL2 260711Z 17017KT 22/20 A2995 RMK A01 T02230196  RH  085%=      5-min Rain = 0
KCL2 260712Z 16017G24KT 22/20 A2995 RMK A01 T02230196  RH  085%=      5-min Rain = 0
KCL2 260713Z 17016KT 22/20 A2995 RMK A01 T02230196  RH  085%=      5-min Rain = 0
KCL2 260714Z 17015G22KT 22/20 A2995 RMK A01 T02230196  RH  085%=      5-min Rain = 0
KCL2 260715Z 16013KT 22/20 A2995 RMK A01 T02220196  RH  085%=      5-min Rain = 0
KCL2 260716Z 17016G21KT 22/20 A2995 RMK A01 T02220196  RH  085%=      5-min Rain = 0
KCL2 260717Z 16016KT 22/20 A2995 RMK A01 T02220196  RH  085%=      5-min Rain = 0
KCL2 260718Z 17016KT 22/20 A2995 RMK A01 T02220196  RH  085%=      5-min Rain = 0
KCL2 260719Z 17013G18KT 22/20 A2995 RMK A01 T02220196  RH  086%=      5-min Rain = 0
KCL2 260720Z 17016KT 22/20 A2995 RMK A01 T02220197  RH  086%=      5-min Rain = 0
KCL2 260721Z 17015G21KT 22/20 A2995 RMK A01 T02220197  RH  086%=      5-min Rain = 0
KCL2 260722Z 17016KT 22/20 A2995 RMK A01 T02210196  RH  086%=      5-min Rain = 0
KCL2 260723Z 17018KT 22/20 A2995 RMK A01 T02210196  RH  086%=      5-min Rain = 0
KCL2 260724Z 16020G25KT 22/20 A2995 RMK A01 T02210197  RH  086%=      5-min Rain = 0
KCL2 260725Z 16016KT 22/20 A2995 RMK A01 T02210196  RH  086%=      5-min Rain = 0
KCL2 260726Z 16016G21KT 22/20 A2995 RMK A01 T02210196  RH  086%=      5-min Rain = 0
KCL2 260727Z 16016KT 22/20 A2995 RMK A01 T02210196  RH  086%=      5-min Rain = 0
KCL2 260728Z 16018G23KT 22/20 A2995 RMK A01 T02210197  RH  086%=      5-min Rain = 0
KCL2 260729Z 16015G22KT 22/20 A2995 RMK A01 T02210197  RH  086%=      5-min Rain = 0
KCL2 260730Z 17016G22KT 22/20 A2995 RMK A01 T02210196  RH  086%=      5-min Rain = 0
KCL2 260731Z 17016KT 22/20 A2995 RMK A01 T02210197  RH  086%=      5-min Rain = 0
KCL2 260732Z 17014G19KT 22/20 A2995 RMK A01 T02200196  RH  086%=      5-min Rain = 0
KCL2 260733Z 16016G21KT 22/20 A2995 RMK A01 T02200197  RH  087%=      5-min Rain = 0
KCL2 260734Z 17018G23KT 22/20 A2995 RMK A01 T02190196  RH  087%=      5-min Rain = 0
KCL2 260735Z 17016KT 22/20 A2995 RMK A01 T02200196  RH  087%=      5-min Rain = 0
KCL2 260736Z 16016G22KT 22/20 A2995 RMK A01 T02200196  RH  087%=      5-min Rain = 0
KCL2 260737Z 16018G23KT 22/20 A2995 RMK A01 T02200197  RH  087%=      5-min Rain = 0
KCL2 260738Z 16016KT 22/20 A2995 RMK A01 T02200197  RH  087%=      5-min Rain = 0
KCL2 260739Z 17016G22KT 22/20 A2995 RMK A01 T02200197  RH  087%=      5-min Rain = 0
KCL2 260740Z 17017KT 22/20 A2995 RMK A01 T02190196  RH  087%=      5-min Rain = 0
KCL2 260741Z 16014KT 22/20 A2995 RMK A01 T02190196  RH  087%=      5-min Rain = 0
KCL2 260742Z 16018G23KT 22/20 A2995 RMK A01 T02190196  RH  087%=      5-min Rain = 0
KCL2 260743Z 16017KT 22/20 A2995 RMK A01 T02190196  RH  087%=      5-min Rain = 0
KCL2 260744Z 17015KT 22/20 A2995 RMK A01 T02190196  RH  087%=      5-min Rain = 0
KCL2 260745Z 16014KT 22/20 A2995 RMK A01 T02180196  RH  087%=      5-min Rain = 0
KCL2 260746Z 17015KT 22/20 A2995 RMK A01 T02180196  RH  087%=      5-min Rain = 0
KCL2 260747Z 17016G21KT 22/20 A2995 RMK A01 T02180196  RH  087%=      5-min Rain = 0
KCL2 260748Z 17019G24KT 22/20 A2995 RMK A01 T02170196  RH  087%=      5-min Rain = 0
KCL2 260749Z 16014G20KT 22/20 A2995 RMK A01 T02180196  RH  087%=      5-min Rain = 0
KCL2 260750Z 16015KT 22/20 A2995 RMK A01 T02180196  RH  087%=      5-min Rain = 0
KCL2 260751Z 16016KT 22/20 A2995 RMK A01 T02180196  RH  087%=      5-min Rain = 0
KCL2 260752Z 16017G23KT 22/20 A2995 RMK A01 T02180196  RH  087%=      5-min Rain = 0
KCL2 260753Z 16016KT 22/20 A2995 RMK A01 T02180196  RH  087%=      5-min Rain = 0
KCL2 260754Z 16017KT 22/20 A2995 RMK A01 T02180196  RH  087%=      5-min Rain = 0
KCL2 260755Z 16017G22KT 22/20 A2995 RMK A01 T02180196  RH  087%=      5-min Rain = 0
KCL2 260756Z 16015KT 22/20 A2995 RMK A01 T02180196  RH  087%=      5-min Rain = 0
KCL2 260757Z 16015KT 22/20 A2995 RMK A01 T02180196  RH  087%=      5-min Rain = 0
KCL2 260758Z 16015G21KT 22/20 A2995 RMK A01 T02170195  RH  087%=      5-min Rain = 0
KCL2 260759Z 16018KT 22/20 A2995 RMK A01 T02170196  RH  087%=      5-min Rain = 0
KCL2 260800Z 16015KT 22/20 A2995 RMK A01 T02180196  RH  087%=      5-min Rain = 0
KCL2 260801Z 16012G18KT 22/20 A2996 RMK A01 T02170196  RH  087%=      5-min Rain = 0
KCL2 260802Z 16017G23KT 22/20 A2996 RMK A01 T02170196  RH  088%=      5-min Rain = 0
KCL2 260803Z 16014G19KT 22/20 A2995 RMK A01 T02170196  RH  088%=      5-min Rain = 0
KCL2 260804Z 16013G18KT 22/20 A2996 RMK A01 T02170195  RH  087%=      5-min Rain = 0
KCL2 260805Z 16012KT 22/20 A2996 RMK A01 T02170195  RH  088%=      5-min Rain = 0
KCL2 260806Z 17013KT 22/20 A2996 RMK A01 T02170196  RH  088%=      5-min Rain = 0
KCL2 260807Z 15013G19KT 22/20 A2996 RMK A01 T02170196  RH  088%=      5-min Rain = 0
KCL2 260808Z 16014KT 22/20 A2996 RMK A01 T02160196  RH  088%=      5-min Rain = 0
KCL2 260809Z 15011KT 22/20 A2996 RMK A01 T02160196  RH  088%=      5-min Rain = 0
KCL2 260810Z 16009KT 22/20 A2996 RMK A01 T02160196  RH  088%=      5-min Rain = 0
KCL2 260811Z 16011KT 22/20 A2996 RMK A01 T02160196  RH  088%=      5-min Rain = 0
KCL2 260812Z 15011KT 22/20 A2997 RMK A01 T02150196  RH  089%=      5-min Rain = 0
KCL2 260813Z 17014G20KT 22/20 A2997 RMK A01 T02160196  RH  089%=      5-min Rain = 0
KCL2 260814Z 15010G15KT 22/20 A2997 RMK A01 T02160196  RH  089%=      5-min Rain = 0
KCL2 260815Z 15011KT 22/20 A2997 RMK A01 T02150196  RH  089%=      5-min Rain = 0
KCL2 260816Z 16014KT 22/20 A2997 RMK A01 T02150196  RH  089%=      5-min Rain = 0
KCL2 260817Z 15013G18KT 22/20 A2997 RMK A01 T02150196  RH  089%=      5-min Rain = 0
KCL2 260818Z 16011G18KT 22/20 A2998 RMK A01 T02150196  RH  089%=      5-min Rain = 0
KCL2 260819Z 15008KT 22/20 A2998 RMK A01 T02150196  RH  089%=      5-min Rain = 0
KCL2 260820Z 16008KT 22/20 A2998 RMK A01 T02150196  RH  089%=      5-min Rain = 0
KCL2 260821Z 16011KT 22/20 A2998 RMK A01 T02150196  RH  089%=      5-min Rain = 0
KCL2 260822Z 14007KT 22/20 A2998 RMK A01 T02150196  RH  089%=      5-min Rain = 0
KCL2 260823Z 15010KT 22/20 A2998 RMK A01 T02150196  RH  089%=      5-min Rain = 0
KCL2 260824Z 15010KT 22/20 A2998 RMK A01 T02150196  RH  089%=      5-min Rain = 0
KCL2 260825Z 14006KT 22/20 A2998 RMK A01 T02150196  RH  089%=      5-min Rain = 0
KCL2 260826Z 13009KT 22/20 A2998 RMK A01 T02150197  RH  089%=      5-min Rain = 0
KCL2 260827Z 13011G16KT 21/20 A2998 RMK A01 T02140196  RH  089%=      5-min Rain = 0
KCL2 260828Z 13010KT 22/20 A2998 RMK A01 T02150197  RH  089%=      5-min Rain = 0
KCL2 260829Z 14010KT 22/20 A2998 RMK A01 T02150197  RH  089%=      5-min Rain = 0
KCL2 260830Z 14007KT 22/20 A2998 RMK A01 T02150196  RH  089%=      5-min Rain = 0
KCL2 260831Z 14008KT 22/20 A2998 RMK A01 T02150196  RH  089%=      5-min Rain = 0
KCL2 260832Z 14007KT 22/20 A2999 RMK A01 T02150197  RH  089%=      5-min Rain = 0
KCL2 260833Z 13008KT 22/20 A2999 RMK A01 T02150197  RH  090%=      5-min Rain = 0
KCL2 260834Z 14010G15KT 22/20 A2999 RMK A01 T02150197  RH  090%=      5-min Rain = 0
KCL2 260835Z 13011KT 22/20 A2999 RMK A01 T02150197  RH  090%=      5-min Rain = 0
KCL2 260836Z 13011KT 22/20 A2999 RMK A01 T02150197  RH  089%=      5-min Rain = 0
KCL2 260837Z 13011KT 22/20 A2999 RMK A01 T02150196  RH  089%=      5-min Rain = 0
KCL2 260838Z 14008KT 22/20 A2999 RMK A01 T02150196  RH  089%=      5-min Rain = 0
KCL2 260839Z 14007KT 22/20 A2999 RMK A01 T02150197  RH  089%=      5-min Rain = 0
KCL2 260840Z 14009KT 22/20 A2999 RMK A01 T02150197  RH  090%=      5-min Rain = 0
KCL2 260841Z 14013KT 22/20 A2999 RMK A01 T02150197  RH  090%=      5-min Rain = 0
KCL2 260842Z 14012KT 22/20 A2999 RMK A01 T02150197  RH  089%=      5-min Rain = 0
KCL2 260843Z 14012KT 22/20 A2999 RMK A01 T02150196  RH  089%=      5-min Rain = 0
KCL2 260844Z 14011KT 21/20 A2998 RMK A01 T02140196  RH  089%=      5-min Rain = 0
KCL2 260845Z 14011KT 22/20 A2998 RMK A01 T02150196  RH  089%=      5-min Rain = 0
KCL2 260846Z 14010KT 22/20 A2998 RMK A01 T02150196  RH  089%=      5-min Rain = 0
KCL2 260847Z 14009KT 22/20 A2998 RMK A01 T02150196  RH  089%=      5-min Rain = 0
KCL2 260848Z 15012KT 22/20 A2998 RMK A01 T02150196  RH  089%=      5-min Rain = 0
KCL2 260849Z 15014KT 22/20 A2998 RMK A01 T02150196  RH  089%=      5-min Rain = 0
KCL2 260850Z 14013G18KT 22/20 A2998 RMK A01 T02150196  RH  089%=      5-min Rain = 0
KCL2 260851Z 15014KT 22/20 A2998 RMK A01 T02150195  RH  089%=      5-min Rain = 0
KCL2 260852Z 15014KT 22/20 A2998 RMK A01 T02150195  RH  089%=      5-min Rain = 0
KCL2 260853Z 15014KT 22/20 A2998 RMK A01 T02150195  RH  089%=      5-min Rain = 0
KCL2 260854Z 15013G18KT 22/20 A2998 RMK A01 T02150195  RH  088%=      5-min Rain = 0
KCL2 260855Z 15012G17KT 22/20 A2998 RMK A01 T02150195  RH  089%=      5-min Rain = 0
KCL2 260856Z 16014KT 22/20 A2998 RMK A01 T02150195  RH  089%=      5-min Rain = 0
KCL2 260857Z 16013KT 21/20 A2998 RMK A01 T02140195  RH  089%=      5-min Rain = 0
KCL2 260858Z 15012KT 21/20 A2998 RMK A01 T02140195  RH  089%=      5-min Rain = 0
KCL2 260859Z 15012KT 21/20 A2998 RMK A01 T02140195  RH  089%=      5-min Rain = 0
KCL2 260900Z 15014KT 21/20 A2998 RMK A01 T02140196  RH  089%=      5-min Rain = 0
KCL2 260901Z 15012KT 21/20 A2998 RMK A01 T02140195  RH  089%=      5-min Rain = 0
KCL2 260902Z 15013KT 21/20 A2998 RMK A01 T02140195  RH  089%=      5-min Rain = 0
KCL2 260903Z 15011KT 21/20 A2998 RMK A01 T02140195  RH  089%=      5-min Rain = 0
KCL2 260904Z 15012G19KT 21/20 A2998 RMK A01 T02140195  RH  089%=      5-min Rain = 0
KCL2 260905Z 16014G19KT 21/20 A2998 RMK A01 T02140195  RH  089%=      5-min Rain = 0
KCL2 260906Z 16013KT 21/20 A2998 RMK A01 T02140196  RH  089%=      5-min Rain = 0
KCL2 260907Z 16011KT 21/20 A2998 RMK A01 T02140196  RH  089%=      5-min Rain = 0
KCL2 260908Z 15015G20KT 21/20 A2998 RMK A01 T02130195  RH  089%=      5-min Rain = 0
KCL2 260909Z 15014G19KT 21/20 A2998 RMK A01 T02130195  RH  089%=      5-min Rain = 0
KCL2 260910Z 15015KT 21/20 A2998 RMK A01 T02130195  RH  089%=      5-min Rain = 0
KCL2 260911Z 16014G21KT 21/20 A2998 RMK A01 T02130195  RH  089%=      5-min Rain = 0
KCL2 260912Z 16015KT 21/20 A2998 RMK A01 T02130195  RH  089%=      5-min Rain = 0
KCL2 260913Z 16013KT 21/20 A2998 RMK A01 T02130195  RH  089%=      5-min Rain = 0
KCL2 260914Z 16013KT 21/19 A2998 RMK A01 T02130194  RH  089%=      5-min Rain = 0
KCL2 260915Z 15012KT 21/20 A2998 RMK A01 T02130195  RH  089%=      5-min Rain = 0
KCL2 260916Z 16010KT 21/20 A2998 RMK A01 T02130195  RH  089%=      5-min Rain = 0
KCL2 260917Z 16011KT 21/20 A2999 RMK A01 T02120195  RH  090%=      5-min Rain = 0
KCL2 260918Z 16013KT 21/19 A2999 RMK A01 T02120194  RH  090%=      5-min Rain = 0
KCL2 260919Z 16013KT 21/19 A2999 RMK A01 T02120194  RH  089%=      5-min Rain = 0
KCL2 260920Z 15016KT 21/19 A2998 RMK A01 T02120194  RH  089%=      5-min Rain = 0
KCL2 260921Z 16014G19KT 21/19 A2999 RMK A01 T02120194  RH  089%=      5-min Rain = 0
KCL2 260922Z 16013KT 21/19 A2998 RMK A01 T02120193  RH  089%=      5-min Rain = 0
KCL2 260923Z 15014KT 21/19 A2999 RMK A01 T02120193  RH  089%=      5-min Rain = 0
KCL2 260924Z 16014KT 21/19 A2999 RMK A01 T02120193  RH  089%=      5-min Rain = 0
KCL2 260925Z 16013KT 21/19 A2999 RMK A01 T02120193  RH  089%=      5-min Rain = 0
KCL2 260926Z 16015G20KT 21/19 A2999 RMK A01 T02120193  RH  089%=      5-min Rain = 0
KCL2 260927Z 15013KT 21/19 A2999 RMK A01 T02120193  RH  089%=      5-min Rain = 0
KCL2 260928Z 14015KT 21/19 A2999 RMK A01 T02120192  RH  089%=      5-min Rain = 0
KCL2 260929Z 15013KT 21/19 A2999 RMK A01 T02110192  RH  089%=      5-min Rain = 0
KCL2 260930Z 16011KT 21/19 A2999 RMK A01 T02110192  RH  089%=      5-min Rain = 0
KCL2 260931Z 15015KT 21/19 A2999 RMK A01 T02120193  RH  089%=      5-min Rain = 0
KCL2 260932Z 15012KT 21/19 A2999 RMK A01 T02110192  RH  089%=      5-min Rain = 0
KCL2 260933Z 16015KT 21/19 A2999 RMK A01 T02110192  RH  089%=      5-min Rain = 0
KCL2 260934Z 15011G16KT 21/19 A2999 RMK A01 T02110192  RH  089%=      5-min Rain = 0
KCL2 260935Z 16012KT 21/19 A2999 RMK A01 T02110192  RH  089%=      5-min Rain = 0
KCL2 260936Z 15011KT 21/19 A2999 RMK A01 T02110192  RH  089%=      5-min Rain = 0
KCL2 260937Z 15013KT 21/19 A2999 RMK A01 T02100192  RH  089%=      5-min Rain = 0
KCL2 260938Z 14012KT 21/19 A2999 RMK A01 T02110192  RH  089%=      5-min Rain = 0
KCL2 260939Z 15014KT 21/19 A2999 RMK A01 T02110192  RH  089%=      5-min Rain = 0
KCL2 260940Z 15012KT 21/19 A2999 RMK A01 T02100191  RH  089%=      5-min Rain = 0
KCL2 260941Z 15011G16KT 21/19 A2999 RMK A01 T02100192  RH  089%=      5-min Rain = 0
KCL2 260942Z 15011KT 21/19 A2999 RMK A01 T02100192  RH  089%=      5-min Rain = 0
KCL2 260943Z 15012KT 21/19 A2999 RMK A01 T02100191  RH  089%=      5-min Rain = 0
KCL2 260944Z 16014KT 21/19 A2999 RMK A01 T02100191  RH  089%=      5-min Rain = 0
KCL2 260945Z 16015KT 21/19 A2999 RMK A01 T02090191  RH  089%=      5-min Rain = 0
KCL2 260946Z 16013KT 21/19 A2998 RMK A01 T02090190  RH  089%=      5-min Rain = 0
KCL2 260947Z 14010KT 21/19 A2999 RMK A01 T02090190  RH  089%=      5-min Rain = 0
KCL2 260948Z 16009G14KT 21/19 A2999 RMK A01 T02090191  RH  089%=      5-min Rain = 0
KCL2 260949Z 15013KT 21/19 A2999 RMK A01 T02090191  RH  089%=      5-min Rain = 0
KCL2 260950Z 16013KT 21/19 A2999 RMK A01 T02090190  RH  089%=      5-min Rain = 0
KCL2 260951Z 16012KT 21/19 A2999 RMK A01 T02090190  RH  089%=      5-min Rain = 0
KCL2 260952Z 16009KT 21/19 A2999 RMK A01 T02080190  RH  089%=      5-min Rain = 0
KCL2 260953Z 16009KT 21/19 A2999 RMK A01 T02080190  RH  089%=      5-min Rain = 0
KCL2 260954Z 15011KT 21/19 A2999 RMK A01 T02080190  RH  089%=      5-min Rain = 0
KCL2 260955Z 15019KT 21/19 A2999 RMK A01 T02080190  RH  089%=      5-min Rain = 0
KCL2 260956Z 16016G21KT 21/19 A2998 RMK A01 T02080189  RH  089%=      5-min Rain = 0
KCL2 260957Z 16013KT 21/19 A2999 RMK A01 T02080189  RH  089%=      5-min Rain = 0
KCL2 260958Z 16012KT 21/19 A2999 RMK A01 T02080189  RH  089%=      5-min Rain = 0
KCL2 260959Z 16012KT 21/19 A2999 RMK A01 T02080189  RH  089%=      5-min Rain = 0
KCL2 261000Z 16012KT 21/19 A2999 RMK A01 T02080189  RH  089%=      5-min Rain = 0
KCL2 261001Z 15012KT 21/19 A2999 RMK A01 T02070189  RH  089%=      5-min Rain = 0
KCL2 261002Z 15013KT 21/19 A2999 RMK A01 T02080190  RH  089%=      5-min Rain = 0
KCL2 261003Z 15014G19KT 21/19 A2999 RMK A01 T02080190  RH  089%=      5-min Rain = 0
KCL2 261004Z 16013KT 21/19 A2999 RMK A01 T02080189  RH  089%=      5-min Rain = 0
KCL2 261005Z 16010KT 21/19 A2999 RMK A01 T02080189  RH  089%=      5-min Rain = 0
KCL2 261006Z 16011G16KT 21/19 A2999 RMK A01 T02080190  RH  089%=      5-min Rain = 0
KCL2 261007Z 16011KT 21/19 A2999 RMK A01 T02070189  RH  089%=      5-min Rain = 0
KCL2 261008Z 15011KT 21/19 A2999 RMK A01 T02070190  RH  090%=      5-min Rain = 0
KCL2 261009Z 15012KT 21/19 A2999 RMK A01 T02070189  RH  090%=      5-min Rain = 0
KCL2 261010Z 16013KT 21/19 A2999 RMK A01 T02070189  RH  090%=      5-min Rain = 0
KCL2 261011Z 15011KT 21/19 A2999 RMK A01 T02070190  RH  090%=      5-min Rain = 0
KCL2 261012Z 15010G15KT 21/19 A2999 RMK A01 T02060189  RH  090%=      5-min Rain = 0
KCL2 261013Z 16013KT 21/19 A2999 RMK A01 T02060189  RH  090%=      5-min Rain = 0
KCL2 261014Z 14013G20KT 21/19 A2999 RMK A01 T02060189  RH  090%=      5-min Rain = 0
KCL2 261015Z 16017KT 21/19 A2999 RMK A01 T02060189  RH  090%=      5-min Rain = 0
KCL2 261016Z 15014KT 21/19 A2999 RMK A01 T02060188  RH  089%=      5-min Rain = 0
KCL2 261017Z 15012G17KT 21/19 A2999 RMK A01 T02060188  RH  089%=      5-min Rain = 0
KCL2 261018Z 15013KT 21/19 A2999 RMK A01 T02060189  RH  090%=      5-min Rain = 0
KCL2 261019Z 15016KT 21/19 A2999 RMK A01 T02060188  RH  090%=      5-min Rain = 0
KCL2 261020Z 16016KT 21/19 A2999 RMK A01 T02060189  RH  090%=      5-min Rain = 0
KCL2 261021Z 15016KT 21/19 A2999 RMK A01 T02050188  RH  090%=      5-min Rain = 0
KCL2 261022Z 15012KT 21/19 A2999 RMK A01 T02050188  RH  090%=      5-min Rain = 0
KCL2 261023Z 16014KT 21/19 A2999 RMK A01 T02050188  RH  090%=      5-min Rain = 0
KCL2 261024Z 15013G19KT 21/19 A2999 RMK A01 T02050188  RH  090%=      5-min Rain = 0
KCL2 261025Z 15013G19KT 21/19 A2999 RMK A01 T02050188  RH  090%=      5-min Rain = 0
KCL2 261026Z 15013KT 21/19 A2999 RMK A01 T02050188  RH  090%=      5-min Rain = 0
KCL2 261027Z 14014G19KT 20/19 A2999 RMK A01 T02040188  RH  090%=      5-min Rain = 0
KCL2 261028Z 15013KT 21/19 A2999 RMK A01 T02050188  RH  090%=      5-min Rain = 0
KCL2 261029Z 15014KT 20/19 A2999 RMK A01 T02040188  RH  090%=      5-min Rain = 0
KCL2 261030Z 15016KT 20/19 A2999 RMK A01 T02040188  RH  090%=      5-min Rain = 0
KCL2 261031Z 16016KT 20/19 A2999 RMK A01 T02040188  RH  090%=      5-min Rain = 0
KCL2 261032Z 15013KT 20/19 A2999 RMK A01 T02040188  RH  090%=      5-min Rain = 0
KCL2 261033Z 14017KT 20/19 A2999 RMK A01 T02040188  RH  091%=      5-min Rain = 0
KCL2 261034Z 16017G22KT 20/19 A2999 RMK A01 T02030187  RH  091%=      5-min Rain = 0
KCL2 261035Z 15016G21KT 20/19 A2999 RMK A01 T02030187  RH  091%=      5-min Rain = 0
KCL2 261036Z 15012G18KT 20/19 A2999 RMK A01 T02030187  RH  091%=      5-min Rain = 0
KCL2 261037Z 15014KT 20/19 A2999 RMK A01 T02030188  RH  091%=      5-min Rain = 0
KCL2 261038Z 15010KT 20/19 A2999 RMK A01 T02030188  RH  091%=      5-min Rain = 0
KCL2 261039Z 15011KT 20/19 A2999 RMK A01 T02030188  RH  091%=      5-min Rain = 0
KCL2 261040Z 15010KT 20/19 A2999 RMK A01 T02020188  RH  091%=      5-min Rain = 0
KCL2 261041Z 15013KT 20/19 A2999 RMK A01 T02020188  RH  091%=      5-min Rain = 0
KCL2 261042Z 15011G17KT 20/19 A2999 RMK A01 T02020188  RH  091%=      5-min Rain = 0
KCL2 261043Z 16015G20KT 20/19 A2999 RMK A01 T02020187  RH  091%=      5-min Rain = 0
KCL2 261044Z 15012KT 20/19 A2999 RMK A01 T02020187  RH  091%=      5-min Rain = 0
KCL2 261045Z 14009KT 20/19 A2999 RMK A01 T02020187  RH  091%=      5-min Rain = 0
KCL2 261046Z 15010KT 20/19 A30 RMK A01 T02020188  RH  091%=      5-min Rain = 0
KCL2 261047Z 15012KT 20/19 A2999 RMK A01 T02020187  RH  091%=      5-min Rain = 0
KCL2 261048Z 14012KT 20/19 A30 RMK A01 T02020188  RH  091%=      5-min Rain = 0
KCL2 261049Z 15015KT 20/19 A30 RMK A01 T02020187  RH  091%=      5-min Rain = 0
KCL2 261050Z 15012KT 20/19 A30 RMK A01 T02010187  RH  091%=      5-min Rain = 0
KCL2 261051Z 15009KT 20/19 A30 RMK A01 T02010187  RH  091%=      5-min Rain = 0
KCL2 261052Z 14010KT 20/19 A30 RMK A01 T02010187  RH  092%=      5-min Rain = 0
KCL2 261053Z 14010KT 20/19 A30 RMK A01 T02010187  RH  092%=      5-min Rain = 0
KCL2 261054Z 14011G16KT 20/19 A30 RMK A01 T02010187  RH  092%=      5-min Rain = 0
KCL2 261055Z 15011KT 20/19 A30 RMK A01 T02010187  RH  092%=      5-min Rain = 0
KCL2 261056Z 16011KT 20/19 A30 RMK A01 T02010187  RH  092%=      5-min Rain = 0
KCL2 261057Z 15011KT 20/19 A30 RMK A01 T02000187  RH  092%=      5-min Rain = 0
KCL2 261058Z 15012KT 20/19 A30 RMK A01 T02000187  RH  092%=      5-min Rain = 0
KCL2 261059Z 15012KT 20/19 A30 RMK A01 T02000187  RH  092%=      5-min Rain = 0
KCL2 261100Z 15011KT 20/19 A30 RMK A01 T01990186  RH  092%=      5-min Rain = 0
KCL2 261101Z 16011KT 20/19 A30 RMK A01 T01990186  RH  092%=      5-min Rain = 0
KCL2 261102Z 15011KT 20/19 A30 RMK A01 T01990186  RH  092%=      5-min Rain = 0
KCL2 261103Z 15011KT 20/19 A30 RMK A01 T01990186  RH  092%=      5-min Rain = 0
KCL2 261104Z 15013KT 20/19 A30 RMK A01 T01990186  RH  092%=      5-min Rain = 0
KCL2 261105Z 16015KT 20/19 A30 RMK A01 T01990186  RH  092%=      5-min Rain = 0
KCL2 261106Z 16014KT 20/19 A30 RMK A01 T01990186  RH  092%=      5-min Rain = 0
KCL2 261107Z 15013KT 20/19 A30 RMK A01 T01980186  RH  093%=      5-min Rain = 0
KCL2 261108Z 16012KT 20/19 A30 RMK A01 T01980186  RH  093%=      5-min Rain = 0
KCL2 261109Z 16013KT 20/19 A30 RMK A01 T01980186  RH  093%=      5-min Rain = 0
KCL2 261110Z 15013KT 20/19 A30 RMK A01 T01980186  RH  093%=      5-min Rain = 0
KCL2 261111Z 15014KT 20/19 A30 RMK A01 T01970186  RH  093%=      5-min Rain = 0
KCL2 261112Z 16013KT 20/19 A30 RMK A01 T01980186  RH  093%=      5-min Rain = 0
KCL2 261113Z 16013KT 20/19 A30 RMK A01 T01970185  RH  093%=      5-min Rain = 0
KCL2 261114Z 15011KT 20/19 A30 RMK A01 T01970186  RH  093%=      5-min Rain = 0
KCL2 261115Z 16011KT 20/19 A30 RMK A01 T01960185  RH  093%=      5-min Rain = 0
KCL2 261116Z 15015KT 20/19 A30 RMK A01 T01970185  RH  093%=      5-min Rain = 0
KCL2 261117Z 15015G20KT 20/19 A30 RMK A01 T01970185  RH  093%=      5-min Rain = 0
KCL2 261118Z 15012KT 20/19 A30 RMK A01 T01960185  RH  093%=      5-min Rain = 0
KCL2 261119Z 15013KT 20/19 A30 RMK A01 T01960185  RH  093%=      5-min Rain = 0
KCL2 261120Z 15014KT 20/19 A30 RMK A01 T01960185  RH  093%=      5-min Rain = 0
KCL2 261121Z 16012G17KT 20/19 A30 RMK A01 T01960185  RH  093%=      5-min Rain = 0
KCL2 261122Z 15013KT 20/19 A30 RMK A01 T01960185  RH  093%=      5-min Rain = 0
KCL2 261123Z 15013KT 20/19 A30 RMK A01 T01960185  RH  093%=      5-min Rain = 0
KCL2 261124Z 16012KT 20/19 A30 RMK A01 T01960186  RH  093%=      5-min Rain = 0
KCL2 261125Z 16012KT 20/19 A30 RMK A01 T01960185  RH  093%=      5-min Rain = 0
KCL2 261126Z 16012G17KT 20/19 A30 RMK A01 T01960186  RH  094%=      5-min Rain = 0
KCL2 261127Z 15013KT 20/19 A30 RMK A01 T01960186  RH  094%=      5-min Rain = 0
KCL2 261128Z 16015KT 20/19 A30 RMK A01 T01960185  RH  093%=      5-min Rain = 0
KCL2 261129Z 15013G18KT 20/19 A3001 RMK A01 T01960185  RH  093%=      5-min Rain = 0
KCL2 261130Z 16015KT 20/19 A3001 RMK A01 T01960185  RH  093%=      5-min Rain = 0
KCL2 261131Z 15015KT 20/19 A3001 RMK A01 T01970185  RH  093%=      5-min Rain = 0
KCL2 261132Z 15014KT 20/19 A30 RMK A01 T01970185  RH  093%=      5-min Rain = 0
KCL2 261133Z 16012KT 20/19 A3001 RMK A01 T01960185  RH  093%=      5-min Rain = 0
KCL2 261134Z 15013KT 20/19 A30 RMK A01 T01970185  RH  093%=      5-min Rain = 0
KCL2 261135Z 15012KT 20/19 A3001 RMK A01 T01970185  RH  093%=      5-min Rain = 0
KCL2 261136Z 15011KT 20/19 A3001 RMK A01 T01970186  RH  093%=      5-min Rain = 0
KCL2 261137Z 15012KT 20/19 A3001 RMK A01 T01970185  RH  093%=      5-min Rain = 0
KCL2 261138Z 15016KT 20/19 A3001 RMK A01 T01960185  RH  093%=      5-min Rain = 0
KCL2 261139Z 15013KT 20/19 A3001 RMK A01 T01960185  RH  093%=      5-min Rain = 0
KCL2 261140Z 15014KT 20/19 A3001 RMK A01 T01960185  RH  093%=      5-min Rain = 0
KCL2 261141Z 15013KT 20/19 A3001 RMK A01 T01960185  RH  093%=      5-min Rain = 0
KCL2 261142Z 15016KT 20/19 A3001 RMK A01 T01960185  RH  093%=      5-min Rain = 0
KCL2 261143Z 15013KT 20/19 A3001 RMK A01 T01970185  RH  093%=      5-min Rain = 0
KCL2 261144Z 15012KT 20/19 A3001 RMK A01 T01970185  RH  093%=      5-min Rain = 0
KCL2 261145Z 15014KT 20/19 A3001 RMK A01 T01970185  RH  093%=      5-min Rain = 0
KCL2 261146Z 15014KT 20/19 A3001 RMK A01 T01970185  RH  093%=      5-min Rain = 0
KCL2 261147Z 15012KT 20/19 A3001 RMK A01 T01970185  RH  093%=      5-min Rain = 0
KCL2 261148Z 15012KT 20/19 A3001 RMK A01 T01970185  RH  093%=      5-min Rain = 0
KCL2 261149Z 15013KT 20/19 A3001 RMK A01 T01970185  RH  093%=      5-min Rain = 0
KCL2 261150Z 16013KT 20/19 A3001 RMK A01 T01970185  RH  093%=      5-min Rain = 0
KCL2 261151Z 14014KT 20/19 A3001 RMK A01 T01970185  RH  093%=      5-min Rain = 0
KCL2 261152Z 15013G18KT 20/19 A3001 RMK A01 T01970185  RH  093%=      5-min Rain = 0
KCL2 261153Z 16012G18KT 20/19 A3001 RMK A01 T01970185  RH  093%=      5-min Rain = 0
KCL2 261154Z 15011G17KT 20/19 A3001 RMK A01 T01970186  RH  093%=      5-min Rain = 0
KCL2 261155Z 15015G22KT 20/19 A3001 RMK A01 T01970185  RH  093%=      5-min Rain = 0
KCL2 261156Z 15015KT 20/19 A3001 RMK A01 T01970185  RH  093%=      5-min Rain = 0
KCL2 261157Z 15012G18KT 20/19 A3001 RMK A01 T01980185  RH  093%=      5-min Rain = 0
KCL2 261158Z 15012KT 20/19 A3001 RMK A01 T01980185  RH  093%=      5-min Rain = 0
KCL2 261159Z 16013G18KT 20/19 A3001 RMK A01 T01980186  RH  093%=      5-min Rain = 0
KCL2 261200Z 16013KT 20/19 A3001 RMK A01 T01980186  RH  093%=      5-min Rain = 0
KCL2 261201Z 16011KT 20/19 A3002 RMK A01 T01980185  RH  093%=      5-min Rain = 0
KCL2 261202Z 16010KT 20/19 A3002 RMK A01 T01980185  RH  093%=      5-min Rain = 0
KCL2 261203Z 15011KT 20/19 A3002 RMK A01 T01980186  RH  093%=      5-min Rain = 0
KCL2 261204Z 16013G18KT 20/19 A3002 RMK A01 T01980186  RH  093%=      5-min Rain = 0
KCL2 261205Z 16013KT 20/19 A3002 RMK A01 T01980186  RH  093%=      5-min Rain = 0
KCL2 261206Z 15011KT 20/19 A3002 RMK A01 T01980185  RH  093%=      5-min Rain = 0
KCL2 261207Z 16012KT 20/19 A3002 RMK A01 T01980186  RH  093%=      5-min Rain = 0
KCL2 261208Z 16013KT 20/19 A3002 RMK A01 T01980186  RH  093%=      5-min Rain = 0
KCL2 261209Z 16014KT 20/19 A3002 RMK A01 T01980186  RH  093%=      5-min Rain = 0
KCL2 261210Z 16013KT 20/19 A3002 RMK A01 T01980186  RH  093%=      5-min Rain = 0
KCL2 261211Z 15012KT 20/19 A3002 RMK A01 T01980186  RH  093%=      5-min Rain = 0
KCL2 261212Z 16012KT 20/19 A3002 RMK A01 T01980186  RH  093%=      5-min Rain = 0
KCL2 261213Z 15011KT 20/19 A3002 RMK A01 T01980186  RH  093%=      5-min Rain = 0
KCL2 261214Z 15011KT 20/19 A3002 RMK A01 T01980186  RH  093%=      5-min Rain = 0
KCL2 261215Z 16014KT 20/19 A3002 RMK A01 T01980186  RH  093%=      5-min Rain = 0
KCL2 261216Z 16014KT 20/19 A3002 RMK A01 T01980186  RH  093%=      5-min Rain = 0
KCL2 261217Z 15016KT 20/19 A3002 RMK A01 T01980186  RH  092%=      5-min Rain = 0
KCL2 261218Z 15014KT 20/19 A3002 RMK A01 T01980186  RH  093%=      5-min Rain = 0
KCL2 261219Z 15011KT 20/19 A3002 RMK A01 T01980186  RH  092%=      5-min Rain = 0
KCL2 261220Z 16012KT 20/19 A3002 RMK A01 T01990186  RH  092%=      5-min Rain = 0
KCL2 261221Z 16009KT 20/19 A3002 RMK A01 T01980186  RH  093%=      5-min Rain = 0
KCL2 261222Z 16011KT 20/19 A3002 RMK A01 T01980186  RH  093%=      5-min Rain = 0
KCL2 261223Z 16014KT 20/19 A3002 RMK A01 T01980186  RH  093%=      5-min Rain = 0
KCL2 261224Z 15012KT 20/19 A3002 RMK A01 T01990186  RH  093%=      5-min Rain = 0
KCL2 261225Z 16015G20KT 20/19 A3002 RMK A01 T01990186  RH  093%=      5-min Rain = 0
KCL2 261226Z 16013KT 20/19 A3002 RMK A01 T01990186  RH  092%=      5-min Rain = 0
KCL2 261227Z 15013KT 20/19 A3002 RMK A01 T01990186  RH  092%=      5-min Rain = 0
KCL2 261228Z 16010G16KT 20/19 A3003 RMK A01 T01990187  RH  092%=      5-min Rain = 0
KCL2 261229Z 17013G18KT 20/19 A3003 RMK A01 T01990187  RH  092%=      5-min Rain = 0
KCL2 261230Z 15014KT 20/19 A3003 RMK A01 T01990187  RH  092%=      5-min Rain = 0
KCL2 261231Z 16017G22KT 20/19 A3002 RMK A01 T01990186  RH  092%=      5-min Rain = 0
KCL2 261232Z 16013KT 20/19 A3003 RMK A01 T02000187  RH  092%=      5-min Rain = 0
KCL2 261233Z 16011KT 20/19 A3003 RMK A01 T02000187  RH  092%=      5-min Rain = 0
KCL2 261234Z 16013KT 20/19 A3003 RMK A01 T02000187  RH  092%=      5-min Rain = 0
KCL2 261235Z 16012KT 20/19 A3003 RMK A01 T02000187  RH  092%=      5-min Rain = 0
KCL2 261236Z 16013KT 20/19 A3003 RMK A01 T02000187  RH  092%=      5-min Rain = 0
KCL2 261237Z 15013KT 20/19 A3003 RMK A01 T02000187  RH  092%=      5-min Rain = 0
KCL2 261238Z 15014KT 20/19 A3003 RMK A01 T02000186  RH  092%=      5-min Rain = 0
KCL2 261239Z 15015KT 20/19 A3003 RMK A01 T02000186  RH  092%=      5-min Rain = 0
KCL2 261240Z 16015KT 20/19 A3003 RMK A01 T02000186  RH  092%=      5-min Rain = 0
KCL2 261241Z 16010KT 20/19 A3003 RMK A01 T02000187  RH  092%=      5-min Rain = 0
KCL2 261242Z 17010G15KT 20/19 A3003 RMK A01 T02010188  RH  092%=      5-min Rain = 0
KCL2 261243Z 16012KT 20/19 A3003 RMK A01 T02010187  RH  092%=      5-min Rain = 0
KCL2 261244Z 16013KT 20/19 A3003 RMK A01 T02010187  RH  092%=      5-min Rain = 0
KCL2 261245Z 16015KT 20/19 A3003 RMK A01 T02010187  RH  092%=      5-min Rain = 0
KCL2 261246Z 16012KT 20/19 A3003 RMK A01 T02010187  RH  092%=      5-min Rain = 0
KCL2 261247Z 15013KT 20/19 A3003 RMK A01 T02010187  RH  092%=      5-min Rain = 0
KCL2 261248Z 16013KT 20/19 A3003 RMK A01 T02010187  RH  091%=      5-min Rain = 0
KCL2 261249Z 16010G15KT 20/19 A3003 RMK A01 T02020187  RH  092%=      5-min Rain = 0
KCL2 261250Z 16014G19KT 20/19 A3003 RMK A01 T02020188  RH  091%=      5-min Rain = 0
KCL2 261251Z 16012KT 20/19 A3003 RMK A01 T02020187  RH  091%=      5-min Rain = 0
KCL2 261252Z 16015KT 20/19 A3003 RMK A01 T02030188  RH  091%=      5-min Rain = 0
KCL2 261253Z 16016KT 20/19 A3003 RMK A01 T02030187  RH  091%=      5-min Rain = 0
KCL2 261254Z 16014KT 20/19 A3003 RMK A01 T02030187  RH  091%=      5-min Rain = 0
KCL2 261255Z 17012KT 20/19 A3003 RMK A01 T02030188  RH  091%=      5-min Rain = 0
KCL2 261256Z 16012KT 20/19 A3003 RMK A01 T02030188  RH  091%=      5-min Rain = 0
KCL2 261257Z 16012KT 20/19 A3003 RMK A01 T02040188  RH  091%=      5-min Rain = 0
KCL2 261258Z 16016KT 20/19 A3003 RMK A01 T02040188  RH  090%=      5-min Rain = 0
KCL2 261259Z 16013KT 20/19 A3003 RMK A01 T02040187  RH  090%=      5-min Rain = 0
KCL2 261300Z 16011KT 20/19 A3003 RMK A01 T02040188  RH  090%=      5-min Rain = 0
KCL2 261301Z 16010G15KT 21/19 A3003 RMK A01 T02050188  RH  090%=      5-min Rain = 0
KCL2 261302Z 16010KT 21/19 A3003 RMK A01 T02050188  RH  090%=      5-min Rain = 0
KCL2 261303Z 17011KT 21/19 A3003 RMK A01 T02050188  RH  090%=      5-min Rain = 0
KCL2 261304Z 16013KT 21/19 A3003 RMK A01 T02050188  RH  090%=      5-min Rain = 0
KCL2 261305Z 16012KT 20/19 A3004 RMK A01 T02040188  RH  090%=      5-min Rain = 0
KCL2 261306Z 16013KT 21/19 A3004 RMK A01 T02050188  RH  090%=      5-min Rain = 0
KCL2 261307Z 16011G16KT 21/19 A3004 RMK A01 T02050188  RH  090%=      5-min Rain = 0
KCL2 261308Z 16011KT 21/19 A3004 RMK A01 T02050188  RH  090%=      5-min Rain = 0
KCL2 261309Z 16009KT 21/19 A3004 RMK A01 T02050188  RH  090%=      5-min Rain = 0
KCL2 261310Z 16012G18KT 20/19 A3004 RMK A01 T02040188  RH  090%=      5-min Rain = 0
KCL2 261311Z 17014KT 21/19 A3004 RMK A01 T02050188  RH  090%=      5-min Rain = 0
KCL2 261312Z 16011KT 21/19 A3004 RMK A01 T02050188  RH  090%=      5-min Rain = 0
KCL2 261313Z 15010KT 21/19 A3004 RMK A01 T02050188  RH  090%=      5-min Rain = 0
KCL2 261314Z 16009KT 21/19 A3004 RMK A01 T02050188  RH  090%=      5-min Rain = 0
KCL2 261315Z 16010KT 21/19 A3004 RMK A01 T02050189  RH  090%=      5-min Rain = 0
KCL2 261316Z 15011KT 21/19 A3004 RMK A01 T02050188  RH  090%=      5-min Rain = 0
KCL2 261317Z 15010KT 21/19 A3004 RMK A01 T02050188  RH  090%=      5-min Rain = 0
KCL2 261318Z 16009KT 21/19 A3004 RMK A01 T02050188  RH  090%=      5-min Rain = 0
KCL2 261319Z 16009KT 21/19 A3004 RMK A01 T02060189  RH  090%=      5-min Rain = 0
KCL2 261320Z 16012KT 21/19 A3004 RMK A01 T02060189  RH  090%=      5-min Rain = 0
KCL2 261321Z 16014KT 21/19 A3004 RMK A01 T02060188  RH  089%=      5-min Rain = 0
KCL2 261322Z 14014KT 21/19 A3004 RMK A01 T02060188  RH  089%=      5-min Rain = 0
KCL2 261323Z 15009KT 21/19 A3004 RMK A01 T02070188  RH  089%=      5-min Rain = 0
KCL2 261324Z 15011G16KT 21/19 A3004 RMK A01 T02070189  RH  089%=      5-min Rain = 0
KCL2 261325Z 17012KT 21/19 A3004 RMK A01 T02070188  RH  089%=      5-min Rain = 0
KCL2 261326Z 15011KT 21/19 A3004 RMK A01 T02070188  RH  089%=      5-min Rain = 0
KCL2 261327Z 16010KT 21/19 A3005 RMK A01 T02080188  RH  088%=      5-min Rain = 0
KCL2 261328Z 16009KT 21/19 A3005 RMK A01 T02080189  RH  089%=      5-min Rain = 0
KCL2 261329Z 17009KT 21/19 A3005 RMK A01 T02090189  RH  088%=      5-min Rain = 0
KCL2 261330Z 16011KT 21/19 A3005 RMK A01 T02090189  RH  089%=      5-min Rain = 0
KCL2 261331Z 17012KT 21/19 A3005 RMK A01 T02090189  RH  088%=      5-min Rain = 0
KCL2 261332Z 17011KT 21/19 A3005 RMK A01 T02090189  RH  088%=      5-min Rain = 0
KCL2 261333Z 16011KT 21/19 A3005 RMK A01 T02090189  RH  088%=      5-min Rain = 0
KCL2 261334Z 16012KT 21/19 A3005 RMK A01 T02090189  RH  088%=      5-min Rain = 0
KCL2 261335Z 16013KT 21/19 A3005 RMK A01 T02090189  RH  088%=      5-min Rain = 0
KCL2 261336Z 16012G17KT 21/19 A3005 RMK A01 T02090188  RH  088%=      5-min Rain = 0
KCL2 261337Z 17011KT 21/19 A3005 RMK A01 T02090189  RH  088%=      5-min Rain = 0
KCL2 261338Z 15013G19KT 21/19 A3005 RMK A01 T02100189  RH  088%=      5-min Rain = 0
KCL2 261339Z 15011KT 21/19 A3005 RMK A01 T02100188  RH  087%=      5-min Rain = 0
KCL2 261340Z 16013G20KT 21/19 A3005 RMK A01 T02100189  RH  088%=      5-min Rain = 0
KCL2 261341Z 16015KT 21/19 A3005 RMK A01 T02100188  RH  087%=      5-min Rain = 0
KCL2 261342Z 16012KT 21/19 A3005 RMK A01 T02110188  RH  087%=      5-min Rain = 0
KCL2 261343Z 16015G20KT 21/19 A3005 RMK A01 T02110188  RH  087%=      5-min Rain = 0
KCL2 261344Z 17014KT 21/19 A3005 RMK A01 T02120187  RH  086%=      5-min Rain = 0
KCL2 261345Z 16012KT 21/19 A3005 RMK A01 T02120188  RH  086%=      5-min Rain = 0
KCL2 261346Z 17010KT 21/19 A3006 RMK A01 T02130189  RH  086%=      5-min Rain = 0
KCL2 261347Z 16011KT 21/19 A3006 RMK A01 T02140190  RH  086%=      5-min Rain = 0
KCL2 261348Z 17012KT 22/19 A3006 RMK A01 T02150189  RH  085%=      5-min Rain = 0
KCL2 261349Z 17014KT 21/19 A3006 RMK A01 T02140189  RH  085%=      5-min Rain = 0
KCL2 261350Z 17011KT 21/19 A3006 RMK A01 T02140189  RH  086%=      5-min Rain = 0
KCL2 261351Z 17013KT 21/19 A3006 RMK A01 T02140189  RH  086%=      5-min Rain = 0
KCL2 261352Z 17014KT 21/19 A3006 RMK A01 T02140189  RH  086%=      5-min Rain = 0
KCL2 261353Z 17015KT 21/19 A3006 RMK A01 T02140189  RH  085%=      5-min Rain = 0
KCL2 261354Z 17014G19KT 21/19 A3006 RMK A01 T02140188  RH  085%=      5-min Rain = 0
KCL2 261355Z 17011KT 21/19 A3006 RMK A01 T02140189  RH  086%=      5-min Rain = 0
KCL2 261356Z 16011KT 21/19 A3006 RMK A01 T02140190  RH  086%=      5-min Rain = 0
KCL2 261357Z 17011KT 22/19 A3006 RMK A01 T02150189  RH  085%=      5-min Rain = 0
KCL2 261358Z 17011KT 22/19 A3006 RMK A01 T02150190  RH  085%=      5-min Rain = 0
KCL2 261359Z 17012KT 22/19 A3006 RMK A01 T02150189  RH  085%=      5-min Rain = 0
KCL2 261400Z 15011KT 22/19 A3006 RMK A01 T02150190  RH  085%=      5-min Rain = 0
KCL2 261401Z 16012KT 22/19 A3006 RMK A01 T02150190  RH  085%=      5-min Rain = 0
KCL2 261402Z 17010KT 22/19 A3006 RMK A01 T02160190  RH  085%=      5-min Rain = 0
KCL2 261403Z 17014KT 22/19 A3006 RMK A01 T02180190  RH  084%=      5-min Rain = 0
KCL2 261404Z 16014KT 22/19 A3006 RMK A01 T02180188  RH  083%=      5-min Rain = 0
KCL2 261405Z 16013KT 22/19 A3006 RMK A01 T02180189  RH  083%=      5-min Rain = 0
KCL2 261406Z 17011KT 22/19 A3006 RMK A01 T02180190  RH  084%=      5-min Rain = 0
KCL2 261407Z 18012KT 22/19 A3006 RMK A01 T02190191  RH  084%=      5-min Rain = 0
KCL2 261408Z 16010KT 22/19 A3006 RMK A01 T02190191  RH  084%=      5-min Rain = 0
KCL2 261409Z 17014KT 22/19 A3006 RMK A01 T02200190  RH  083%=      5-min Rain = 0
KCL2 261410Z 18014KT 22/19 A3006 RMK A01 T02200190  RH  083%=      5-min Rain = 0
KCL2 261411Z 17014KT 22/19 A3006 RMK A01 T02190189  RH  083%=      5-min Rain = 0
KCL2 261412Z 16014KT 22/19 A3006 RMK A01 T02190188  RH  083%=      5-min Rain = 0
KCL2 261413Z 18012KT 22/19 A3006 RMK A01 T02180188  RH  083%=      5-min Rain = 0
KCL2 261414Z 18013KT 22/19 A3006 RMK A01 T02190189  RH  083%=      5-min Rain = 0
KCL2 261415Z 17010KT 22/19 A3006 RMK A01 T02180189  RH  083%=      5-min Rain = 0
KCL2 261416Z 17010KT 22/19 A3006 RMK A01 T02180190  RH  084%=      5-min Rain = 0
KCL2 261417Z 16013KT 22/19 A3006 RMK A01 T02200189  RH  083%=      5-min Rain = 0
KCL2 261418Z 17015KT 22/19 A3006 RMK A01 T02200188  RH  082%=      5-min Rain = 0
KCL2 261419Z 18012KT 22/19 A3006 RMK A01 T02190189  RH  083%=      5-min Rain = 0
KCL2 261420Z 18010KT 22/19 A3007 RMK A01 T02190189  RH  083%=      5-min Rain = 0
KCL2 261421Z 18010KT 22/19 A3007 RMK A01 T02190189  RH  083%=      5-min Rain = 0
KCL2 261422Z 18010KT 22/19 A3007 RMK A01 T02200189  RH  083%=      5-min Rain = 0
KCL2 261423Z 18011KT 22/19 A3007 RMK A01 T02200190  RH  083%=      5-min Rain = 0
KCL2 261424Z 17009KT 22/19 A3007 RMK A01 T02200191  RH  083%=      5-min Rain = 0
KCL2 261425Z 17009KT 22/19 A3007 RMK A01 T02200191  RH  083%=      5-min Rain = 0
KCL2 261426Z 16013G18KT 22/19 A3007 RMK A01 T02210190  RH  083%=      5-min Rain = 0
KCL2 261427Z 18013KT 22/19 A3007 RMK A01 T02210189  RH  082%=      5-min Rain = 0
KCL2 261428Z 16010G15KT 22/19 A3007 RMK A01 T02200189  RH  083%=      5-min Rain = 0
KCL2 261429Z 17009KT 22/19 A3007 RMK A01 T02210191  RH  083%=      5-min Rain = 0
KCL2 261430Z 16009KT 22/19 A3007 RMK A01 T02220191  RH  082%=      5-min Rain = 0
KCL2 261431Z 17010KT 22/19 A3007 RMK A01 T02220191  RH  083%=      5-min Rain = 0
KCL2 261432Z 17012KT 22/19 A3007 RMK A01 T02230191  RH  082%=      5-min Rain = 0
KCL2 261433Z 16013KT 22/19 A3007 RMK A01 T02240190  RH  081%=      5-min Rain = 0
KCL2 261434Z 17010G15KT 22/19 A3007 RMK A01 T02240190  RH  081%=      5-min Rain = 0
KCL2 261435Z 17008KT 22/19 A3007 RMK A01 T02240191  RH  081%=      5-min Rain = 0
KCL2 261436Z 17006KT 23/19 A3007 RMK A01 T02260193  RH  082%=      5-min Rain = 0
KCL2 261437Z 16009G15KT 23/19 A3007 RMK A01 T02270193  RH  081%=      5-min Rain = 0
KCL2 261438Z 17010KT 23/19 A3007 RMK A01 T02270192  RH  081%=      5-min Rain = 0
KCL2 261439Z 16011KT 23/19 A3007 RMK A01 T02280192  RH  080%=      5-min Rain = 0
KCL2 261440Z 17013KT 23/19 A3007 RMK A01 T02270192  RH  080%=      5-min Rain = 0
KCL2 261441Z 16012KT 23/19 A3007 RMK A01 T02260190  RH  080%=      5-min Rain = 0
KCL2 261442Z 17011KT 23/19 A3007 RMK A01 T02250191  RH  081%=      5-min Rain = 0
KCL2 261443Z 16010G16KT 23/19 A3007 RMK A01 T02250192  RH  081%=      5-min Rain = 0
KCL2 261444Z 16011KT 23/19 A3007 RMK A01 T02260190  RH  080%=      5-min Rain = 0
KCL2 261445Z 17013KT 23/19 A3007 RMK A01 T02260190  RH  080%=      5-min Rain = 0
KCL2 261446Z 17012KT 23/19 A3007 RMK A01 T02260190  RH  080%=      5-min Rain = 0
KCL2 261447Z 18010KT 23/19 A3007 RMK A01 T02260191  RH  081%=      5-min Rain = 0
KCL2 261448Z 17012KT 23/19 A3007 RMK A01 T02260191  RH  081%=      5-min Rain = 0
KCL2 261449Z 17010KT 23/19 A3007 RMK A01 T02270192  RH  081%=      5-min Rain = 0
KCL2 261450Z 18010KT 23/19 A3007 RMK A01 T02280192  RH  080%=      5-min Rain = 0
KCL2 261451Z 18010KT 23/19 A3007 RMK A01 T02280192  RH  080%=      5-min Rain = 0
KCL2 261452Z 18015KT 23/19 A3007 RMK A01 T02280192  RH  080%=      5-min Rain = 0
KCL2 261453Z 17015KT 23/19 A3007 RMK A01 T02290189  RH  078%=      5-min Rain = 0
KCL2 261454Z 17013G19KT 23/19 A3007 RMK A01 T02280189  RH  079%=      5-min Rain = 0
KCL2 261455Z 18012G17KT 23/19 A3007 RMK A01 T02270188  RH  078%=      5-min Rain = 0
KCL2 261456Z 18010G15KT 23/19 A3007 RMK A01 T02270191  RH  080%=      5-min Rain = 0
KCL2 261457Z 18014KT 23/19 A3007 RMK A01 T02270190  RH  079%=      5-min Rain = 0
KCL2 261458Z 18011KT 23/19 A3007 RMK A01 T02280190  RH  079%=      5-min Rain = 0
KCL2 261459Z 16012KT 23/19 A3007 RMK A01 T02290191  RH  079%=      5-min Rain = 0
KCL2 261500Z 17010KT 23/19 A3007 RMK A01 T02300190  RH  078%=      5-min Rain = 0
KCL2 261501Z 17008G13KT 23/19 A3007 RMK A01 T02300193  RH  079%=      5-min Rain = 0
KCL2 261502Z 16011G16KT 23/19 A3007 RMK A01 T02320192  RH  078%=      5-min Rain = 0
KCL2 261503Z 17014KT 23/19 A3007 RMK A01 T02330191  RH  078%=      5-min Rain = 0
KCL2 261504Z 17015KT 23/19 A3007 RMK A01 T02320190  RH  077%=      5-min Rain = 0
KCL2 261505Z 17012KT 23/19 A3007 RMK A01 T02300189  RH  078%=      5-min Rain = 0
KCL2 261506Z 17011KT 23/19 A3007 RMK A01 T02300190  RH  078%=      5-min Rain = 0
KCL2 261507Z 18010KT 23/19 A3007 RMK A01 T02300192  RH  079%=      5-min Rain = 0
KCL2 261508Z 17013KT 23/19 A3007 RMK A01 T02310191  RH  078%=      5-min Rain = 0
KCL2 261509Z 18014G19KT 23/19 A3007 RMK A01 T02300191  RH  079%=      5-min Rain = 0
KCL2 261510Z 17015G20KT 23/19 A3007 RMK A01 T02300189  RH  078%=      5-min Rain = 0
KCL2 261511Z 18012KT 23/19 A3007 RMK A01 T02290190  RH  078%=      5-min Rain = 0
KCL2 261512Z 17010G15KT 23/19 A3007 RMK A01 T02300190  RH  078%=      5-min Rain = 0
KCL2 261513Z 17010KT 23/19 A3007 RMK A01 T02310191  RH  078%=      5-min Rain = 0
KCL2 261514Z 17010KT 23/19 A3007 RMK A01 T02320192  RH  078%=      5-min Rain = 0
KCL2 261515Z 17008KT 23/19 A3007 RMK A01 T02330194  RH  078%=      5-min Rain = 0
KCL2 261516Z 18013KT 24/19 A3007 RMK A01 T02350193  RH  077%=      5-min Rain = 0
KCL2 261517Z 18011G16KT 24/19 A3007 RMK A01 T02350194  RH  078%=      5-min Rain = 0
KCL2 261518Z 19012KT 24/19 A3007 RMK A01 T02350192  RH  077%=      5-min Rain = 0
KCL2 261519Z 18011KT 24/19 A3007 RMK A01 T02350193  RH  077%=      5-min Rain = 0
KCL2 261520Z 18010KT 24/19 A3007 RMK A01 T02350193  RH  077%=      5-min Rain = 0
KCL2 261521Z 16009KT 24/19 A3007 RMK A01 T02350193  RH  077%=      5-min Rain = 0
KCL2 261522Z 17008KT 23/19 A3007 RMK A01 T02340194  RH  078%=      5-min Rain = 0
KCL2 261523Z 16012KT 24/19 A3007 RMK A01 T02350193  RH  077%=      5-min Rain = 0
KCL2 261524Z 16013KT 24/19 A3007 RMK A01 T02350192  RH  077%=      5-min Rain = 0
KCL2 261525Z 16016KT 24/19 A3007 RMK A01 T02350191  RH  076%=      5-min Rain = 0
KCL2 261526Z 18011G16KT 23/19 A3007 RMK A01 T02340190  RH  076%=      5-min Rain = 0
KCL2 261527Z 19011KT 23/19 A3006 RMK A01 T02340192  RH  077%=      5-min Rain = 0
KCL2 261528Z 17010KT 23/19 A3006 RMK A01 T02340193  RH  078%=      5-min Rain = 0
KCL2 261529Z 17011KT 24/19 A3006 RMK A01 T02360193  RH  077%=      5-min Rain = 0
KCL2 261530Z 18012KT 24/19 A3006 RMK A01 T02370191  RH  076%=      5-min Rain = 0
KCL2 261531Z 17010KT 24/19 A3006 RMK A01 T02360192  RH  076%=      5-min Rain = 0
KCL2 261532Z 16010KT 24/19 A3006 RMK A01 T02360193  RH  077%=      5-min Rain = 0
KCL2 261533Z 16011KT 24/19 A3006 RMK A01 T02370192  RH  076%=      5-min Rain = 0
KCL2 261534Z 17015KT 24/19 A3006 RMK A01 T02380191  RH  075%=      5-min Rain = 0
KCL2 261535Z 17012KT 24/19 A3006 RMK A01 T02380193  RH  076%=      5-min Rain = 0
KCL2 261536Z 17011KT 24/19 A3006 RMK A01 T02400193  RH  075%=      5-min Rain = 0
KCL2 261537Z 17011KT 24/19 A3006 RMK A01 T02400193  RH  075%=      5-min Rain = 0
KCL2 261538Z 19010G15KT 24/20 A3006 RMK A01 T02400195  RH  076%=      5-min Rain = 0
KCL2 261539Z 18010KT 24/19 A3006 RMK A01 T02410193  RH  075%=      5-min Rain = 0
KCL2 261540Z 18010KT 24/19 A3006 RMK A01 T02410194  RH  075%=      5-min Rain = 0
KCL2 261541Z 18013G18KT 24/19 A3006 RMK A01 T02410191  RH  074%=      5-min Rain = 0
KCL2 261542Z 17018KT 24/19 A3006 RMK A01 T02400190  RH  073%=      5-min Rain = 0
KCL2 261543Z 18016KT 24/19 A3006 RMK A01 T02390189  RH  074%=      5-min Rain = 0
KCL2 261544Z 18011KT 24/19 A3006 RMK A01 T02390190  RH  074%=      5-min Rain = 0
KCL2 261545Z 17011KT 24/19 A3006 RMK A01 T02390193  RH  075%=      5-min Rain = 0
KCL2 261546Z 16012KT 24/19 A3006 RMK A01 T02410193  RH  074%=      5-min Rain = 0
KCL2 261547Z 16011G16KT 24/19 A3006 RMK A01 T02420193  RH  074%=      5-min Rain = 0
KCL2 261548Z 17015KT 24/19 A3006 RMK A01 T02420192  RH  073%=      5-min Rain = 0
KCL2 261549Z 17015G20KT 24/19 A3006 RMK A01 T02420190  RH  073%=      5-min Rain = 0
KCL2 261550Z 16017KT 24/19 A3006 RMK A01 T02420190  RH  073%=      5-min Rain = 0
KCL2 261551Z 16015KT 24/19 A3006 RMK A01 T02400188  RH  073%=      5-min Rain = 0
KCL2 261552Z 17014KT 24/19 A3006 RMK A01 T02410191  RH  074%=      5-min Rain = 0
KCL2 261553Z 17012KT 24/19 A3006 RMK A01 T02430190  RH  072%=      5-min Rain = 0
KCL2 261554Z 16012KT 24/19 A3006 RMK A01 T02440192  RH  073%=      5-min Rain = 0
KCL2 261555Z 17012KT 25/19 A3006 RMK A01 T02450193  RH  073%=      5-min Rain = 0
KCL2 261556Z 18013KT 25/19 A3006 RMK A01 T02470194  RH  073%=      5-min Rain = 0
KCL2 261557Z 17013KT 25/19 A3006 RMK A01 T02470192  RH  071%=      5-min Rain = 0
KCL2 261558Z 18013KT 25/19 A3006 RMK A01 T02470191  RH  071%=      5-min Rain = 0
KCL2 261559Z 17014KT 25/19 A3006 RMK A01 T02460190  RH  071%=      5-min Rain = 0
KCL2 261600Z 17014KT 25/19 A3005 RMK A01 T02450190  RH  071%=      5-min Rain = 0
KCL2 261601Z 17014G19KT 24/19 A3006 RMK A01 T02440191  RH  072%=      5-min Rain = 0
KCL2 261602Z 18014KT 24/19 A3005 RMK A01 T02430190  RH  072%=      5-min Rain = 0
KCL2 261603Z 18014KT 24/19 A3006 RMK A01 T02430189  RH  072%=      5-min Rain = 0
KCL2 261604Z 18015G21KT 24/19 A3005 RMK A01 T02430190  RH  072%=      5-min Rain = 0
KCL2 261605Z 18014G20KT 24/19 A3005 RMK A01 T02440189  RH  072%=      5-min Rain = 0
KCL2 261606Z 18012KT 25/19 A3006 RMK A01 T02450191  RH  072%=      5-min Rain = 0
KCL2 261607Z 18012G19KT 25/19 A3006 RMK A01 T02470192  RH  071%=      5-min Rain = 0
KCL2 261608Z 19014KT 25/19 A3005 RMK A01 T02480193  RH  071%=      5-min Rain = 0
KCL2 261609Z 18016KT 25/19 A3005 RMK A01 T02490192  RH  070%=      5-min Rain = 0
KCL2 261610Z 17012KT 25/19 A3006 RMK A01 T02480191  RH  071%=      5-min Rain = 0
KCL2 261611Z 16011G18KT 25/19 A3006 RMK A01 T02480193  RH  072%=      5-min Rain = 0
KCL2 261612Z 17013G19KT 25/19 A3006 RMK A01 T02490192  RH  071%=      5-min Rain = 0
KCL2 261613Z 18013G19KT 25/19 A3005 RMK A01 T02480193  RH  071%=      5-min Rain = 0
KCL2 261614Z 18016G24KT 25/19 A3005 RMK A01 T02470191  RH  071%=      5-min Rain = 0
KCL2 261615Z 18017KT 25/19 A3005 RMK A01 T02450190  RH  071%=      5-min Rain = 0
KCL2 261616Z 17016KT 24/19 A3005 RMK A01 T02440190  RH  072%=      5-min Rain = 0
KCL2 261617Z 16015G20KT 25/19 A3005 RMK A01 T02460191  RH  071%=      5-min Rain = 0
KCL2 261618Z 16015G21KT 25/19 A3005 RMK A01 T02470191  RH  071%=      5-min Rain = 0
KCL2 261619Z 17014G19KT 25/19 A3005 RMK A01 T02480192  RH  071%=      5-min Rain = 0
KCL2 261620Z 17014KT 25/19 A3005 RMK A01 T02480191  RH  070%=      5-min Rain = 0
KCL2 261621Z 17013KT 25/19 A3005 RMK A01 T02460191  RH  071%=      5-min Rain = 0
KCL2 261622Z 16016KT 25/19 A3005 RMK A01 T02450190  RH  071%=      5-min Rain = 0
KCL2 261623Z 16012KT 25/19 A3005 RMK A01 T02450191  RH  072%=      5-min Rain = 0
KCL2 261624Z 16016KT 25/19 A3005 RMK A01 T02460191  RH  071%=      5-min Rain = 0
KCL2 261625Z 16014KT 25/19 A3005 RMK A01 T02460190  RH  071%=      5-min Rain = 0
KCL2 261626Z 16015G20KT 25/19 A3005 RMK A01 T02460190  RH  071%=      5-min Rain = 0
KCL2 261627Z 17012KT 25/19 A3005 RMK A01 T02470193  RH  072%=      5-min Rain = 0
KCL2 261628Z 17012KT 25/19 A3005 RMK A01 T02500193  RH  071%=      5-min Rain = 0
KCL2 261629Z 17012KT 25/19 A3005 RMK A01 T02500192  RH  070%=      5-min Rain = 0
KCL2 261630Z 16014G20KT 25/19 A3005 RMK A01 T02490192  RH  071%=      5-min Rain = 0
KCL2 261631Z 16013G19KT 25/19 A3005 RMK A01 T02490191  RH  070%=      5-min Rain = 0
KCL2 261632Z 16015KT 25/19 A3005 RMK A01 T02480191  RH  071%=      5-min Rain = 0
KCL2 261633Z 18011KT 25/19 A3005 RMK A01 T02480192  RH  071%=      5-min Rain = 0
KCL2 261634Z 16011KT 25/19 A3006 RMK A01 T02480194  RH  072%=      5-min Rain = 0
KCL2 261635Z 16014KT 25/19 A3005 RMK A01 T02480192  RH  071%=      5-min Rain = 0
KCL2 261636Z 17014G20KT 25/19 A3005 RMK A01 T02480192  RH  071%=      5-min Rain = 0
KCL2 261637Z 15014G19KT 25/19 A3005 RMK A01 T02480193  RH  071%=      5-min Rain = 0
KCL2 261638Z 16015KT 25/19 A3005 RMK A01 T02480192  RH  071%=      5-min Rain = 0
KCL2 261639Z 16012KT 25/19 A3005 RMK A01 T02470193  RH  072%=      5-min Rain = 0
KCL2 261640Z 17016G22KT 25/19 A3005 RMK A01 T02470191  RH  071%=      5-min Rain = 0
KCL2 261641Z 17018G23KT 25/19 A3005 RMK A01 T02460189  RH  071%=      5-min Rain = 0
KCL2 261642Z 17018KT 25/19 A3005 RMK A01 T02450189  RH  071%=      5-min Rain = 0
KCL2 261643Z 17015KT 25/19 A3005 RMK A01 T02450189  RH  071%=      5-min Rain = 0
KCL2 261644Z 17016KT 24/19 A3005 RMK A01 T02440189  RH  071%=      5-min Rain = 0
KCL2 261645Z 17014G19KT 25/19 A3005 RMK A01 T02450190  RH  071%=      5-min Rain = 0
KCL2 261646Z 18018KT 25/19 A3005 RMK A01 T02460189  RH  071%=      5-min Rain = 0
KCL2 261647Z 17013KT 25/19 A3005 RMK A01 T02470191  RH  071%=      5-min Rain = 0
KCL2 261648Z 17012KT 25/19 A3005 RMK A01 T02480190  RH  070%=      5-min Rain = 0
KCL2 261649Z 17012KT 25/19 A3005 RMK A01 T02480191  RH  070%=      5-min Rain = 0
KCL2 261650Z 16013KT 25/19 A3005 RMK A01 T02480193  RH  071%=      5-min Rain = 0
KCL2 261651Z 17013KT 25/19 A3005 RMK A01 T02500194  RH  071%=      5-min Rain = 0
KCL2 261652Z 16009KT 25/20 A3005 RMK A01 T02510195  RH  071%=      5-min Rain = 0
KCL2 261653Z 15012KT 25/20 A3005 RMK A01 T02510195  RH  071%=      5-min Rain = 0
KCL2 261654Z 16014G20KT 25/19 A3005 RMK A01 T02510194  RH  071%=      5-min Rain = 0
KCL2 261655Z 17014G20KT 25/19 A3005 RMK A01 T02500194  RH  071%=      5-min Rain = 0
KCL2 261656Z 17015KT 25/19 A3005 RMK A01 T02500192  RH  070%=      5-min Rain = 0
KCL2 261657Z 17014G19KT 25/19 A3005 RMK A01 T02500193  RH  071%=      5-min Rain = 0
KCL2 261658Z 17016KT 25/20 A3005 RMK A01 T02520195  RH  071%=      5-min Rain = 0
KCL2 261659Z 17018G24KT 25/19 A3005 RMK A01 T02520192  RH  069%=      5-min Rain = 0
KCL2 261700Z 16015KT 25/19 A3004 RMK A01 T02510191  RH  069%=      5-min Rain = 0
KCL2 261701Z 17014G19KT 25/19 A3005 RMK A01 T02510192  RH  070%=      5-min Rain = 0
KCL2 261702Z 17017KT 25/19 A3004 RMK A01 T02510191  RH  069%=      5-min Rain = 0
KCL2 261703Z 18013KT 25/19 A3005 RMK A01 T02500193  RH  070%=      5-min Rain = 0
KCL2 261704Z 18015G20KT 25/19 A3005 RMK A01 T02500193  RH  070%=      5-min Rain = 0
KCL2 261705Z 17013KT 25/19 A3005 RMK A01 T02510194  RH  071%=      5-min Rain = 0
KCL2 261706Z 18013KT 25/19 A3005 RMK A01 T02510194  RH  070%=      5-min Rain = 0
KCL2 261707Z 17012KT 25/20 A3005 RMK A01 T02510195  RH  071%=      5-min Rain = 0
KCL2 261708Z 16017G22KT 25/20 A3005 RMK A01 T02510195  RH  071%=      5-min Rain = 0
KCL2 261709Z 16013KT 25/19 A3005 RMK A01 T02500192  RH  070%=      5-min Rain = 0
KCL2 261710Z 15016G22KT 25/19 A3005 RMK A01 T02500193  RH  071%=      5-min Rain = 0
KCL2 261711Z 16015KT 25/19 A3005 RMK A01 T02490192  RH  070%=      5-min Rain = 0
KCL2 261712Z 17011KT 25/19 A3005 RMK A01 T02480193  RH  071%=      5-min Rain = 0
KCL2 261713Z 16011KT 25/19 A3005 RMK A01 T02470193  RH  072%=      5-min Rain = 0
KCL2 261714Z 16014KT 25/19 A3005 RMK A01 T02470193  RH  072%=      5-min Rain = 0
KCL2 261715Z 16015KT 25/19 A3005 RMK A01 T02470193  RH  072%=      5-min Rain = 0
KCL2 261716Z 16014KT 25/19 A3005 RMK A01 T02470193  RH  072%=      5-min Rain = 0
KCL2 261717Z 16013G18KT 25/19 A3005 RMK A01 T02460193  RH  072%=      5-min Rain = 0
KCL2 261718Z 16017KT 25/19 A3005 RMK A01 T02460192  RH  071%=      5-min Rain = 0
KCL2 261719Z 17015KT 25/19 A3005 RMK A01 T02470193  RH  072%=      5-min Rain = 0
KCL2 261720Z 17014KT 25/19 A3005 RMK A01 T02470193  RH  072%=      5-min Rain = 0
KCL2 261721Z 16012KT 25/20 A3005 RMK A01 T02480195  RH  073%=      5-min Rain = 0
KCL2 261722Z 16012KT 25/20 A3005 RMK A01 T02500196  RH  072%=      5-min Rain = 0
KCL2 261723Z 15009KT 25/20 A3004 RMK A01 T02520197  RH  072%=      5-min Rain = 0
KCL2 261724Z 15012KT 25/20 A3004 RMK A01 T02530196  RH  071%=      5-min Rain = 0
KCL2 261725Z 16013KT 25/20 A3004 RMK A01 T02540196  RH  070%=      5-min Rain = 0
KCL2 261726Z 17011KT 26/20 A3004 RMK A01 T02550197  RH  070%=      5-min Rain = 0
KCL2 261727Z 16013KT 26/20 A3005 RMK A01 T02550196  RH  070%=      5-min Rain = 0
KCL2 261728Z 16012G17KT 25/20 A3005 RMK A01 T02540197  RH  071%=      5-min Rain = 0
KCL2 261729Z 15014KT 25/20 A3005 RMK A01 T02530195  RH  070%=      5-min Rain = 0
KCL2 261730Z 16015KT 25/20 A3005 RMK A01 T02520195  RH  070%=      5-min Rain = 0
KCL2 261731Z 16012KT 25/20 A3005 RMK A01 T02520196  RH  071%=      5-min Rain = 0
KCL2 261732Z 17014G19KT 25/20 A3004 RMK A01 T02520196  RH  071%=      5-min Rain = 0
KCL2 261733Z 17015G20KT 25/20 A3004 RMK A01 T02520195  RH  071%=      5-min Rain = 0
KCL2 261734Z 17015KT 25/19 A3005 RMK A01 T02520194  RH  070%=      5-min Rain = 0
KCL2 261735Z 16013KT 25/19 A3005 RMK A01 T02510193  RH  070%=      5-min Rain = 0
KCL2 261736Z 18015G20KT 25/19 A3005 RMK A01 T02510194  RH  071%=      5-min Rain = 0
KCL2 261737Z 17013KT 25/19 A3005 RMK A01 T02490193  RH  071%=      5-min Rain = 0
KCL2 261738Z 17012G17KT 25/19 A3005 RMK A01 T02480192  RH  071%=      5-min Rain = 0
KCL2 261739Z 17012G17KT 25/19 A3005 RMK A01 T02490194  RH  072%=      5-min Rain = 0
KCL2 261740Z 17013KT 25/19 A3005 RMK A01 T02490193  RH  071%=      5-min Rain = 0
KCL2 261741Z 18013KT 25/19 A3005 RMK A01 T02510194  RH  071%=      5-min Rain = 0
KCL2 261742Z 17017KT 25/19 A3004 RMK A01 T02520193  RH  070%=      5-min Rain = 0
KCL2 261743Z 17011KT 25/19 A3005 RMK A01 T02520193  RH  070%=      5-min Rain = 0
KCL2 261744Z 16009KT 25/20 A3005 RMK A01 T02530196  RH  071%=      5-min Rain = 0
KCL2 261745Z 17011KT 26/20 A3005 RMK A01 T02550196  RH  070%=      5-min Rain = 0
KCL2 261746Z 16010KT 26/20 A3005 RMK A01 T02560196  RH  069%=      5-min Rain = 0
KCL2 261747Z 17015KT 26/20 A3005 RMK A01 T02570196  RH  069%=      5-min Rain = 0
KCL2 261748Z 17014KT 26/19 A3005 RMK A01 T02560193  RH  068%=      5-min Rain = 0
KCL2 261749Z 17015G20KT 26/19 A3004 RMK A01 T02550193  RH  069%=      5-min Rain = 0
KCL2 261750Z 17015KT 25/19 A3004 RMK A01 T02540193  RH  069%=      5-min Rain = 0
KCL2 261751Z 16011KT 25/19 A3005 RMK A01 T02540194  RH  069%=      5-min Rain = 0
KCL2 261752Z 16015KT 25/19 A3004 RMK A01 T02540193  RH  069%=      5-min Rain = 0
KCL2 261753Z 16015G21KT 25/19 A3004 RMK A01 T02540193  RH  069%=      5-min Rain = 0
KCL2 261754Z 16017KT 25/19 A3004 RMK A01 T02540192  RH  069%=      5-min Rain = 0
KCL2 261755Z 17014G21KT 25/19 A3004 RMK A01 T02540192  RH  069%=      5-min Rain = 0
KCL2 261756Z 16013G20KT 25/19 A3004 RMK A01 T02540192  RH  069%=      5-min Rain = 0
KCL2 261757Z 16016KT 25/19 A3004 RMK A01 T02540193  RH  069%=      5-min Rain = 0
KCL2 261758Z 17015KT 25/19 A3004 RMK A01 T02540192  RH  069%=      5-min Rain = 0
KCL2 261759Z 18014G19KT 25/19 A3004 RMK A01 T02540192  RH  068%=      5-min Rain = 0
KCL2 261800Z 17014KT 25/19 A3004 RMK A01 T02540192  RH  068%=      5-min Rain = 0
KCL2 261801Z 16014G20KT 25/19 A3004 RMK A01 T02540193  RH  069%=      5-min Rain = 0
KCL2 261802Z 16017KT 25/19 A3004 RMK A01 T02540191  RH  068%=      5-min Rain = 0
KCL2 261803Z 16016KT 25/19 A3004 RMK A01 T02530190  RH  068%=      5-min Rain = 0
KCL2 261804Z 17011KT 25/19 A3004 RMK A01 T02530192  RH  069%=      5-min Rain = 0
KCL2 261805Z 17013KT 25/19 A3004 RMK A01 T02530192  RH  069%=      5-min Rain = 0
KCL2 261806Z 16014KT 25/19 A3004 RMK A01 T02540192  RH  068%=      5-min Rain = 0
KCL2 261807Z 16015KT 25/19 A3004 RMK A01 T02540192  RH  069%=      5-min Rain = 0
KCL2 261808Z 17013G18KT 25/19 A3004 RMK A01 T02540194  RH  069%=      5-min Rain = 0
KCL2 261809Z 18013KT 25/19 A3004 RMK A01 T02540194  RH  069%=      5-min Rain = 0
KCL2 261810Z 18011KT 25/19 A3004 RMK A01 T02540193  RH  069%=      5-min Rain = 0
KCL2 261811Z 18009KT 25/20 A3004 RMK A01 T02540195  RH  070%=      5-min Rain = 0
KCL2 261812Z 18011KT 26/20 A3004 RMK A01 T02550195  RH  069%=      5-min Rain = 0
KCL2 261813Z 17011G16KT 26/19 A3004 RMK A01 T02550194  RH  069%=      5-min Rain = 0
KCL2 261814Z 18011KT 26/19 A3004 RMK A01 T02550194  RH  069%=      5-min Rain = 0
KCL2 261815Z 18014G19KT 26/19 A3004 RMK A01 T02550194  RH  069%=      5-min Rain = 0
KCL2 261816Z 18015KT 26/19 A3004 RMK A01 T02550192  RH  068%=      5-min Rain = 0
KCL2 261817Z 17010KT 26/19 A3004 RMK A01 T02550194  RH  069%=      5-min Rain = 0
KCL2 261818Z 18014KT 26/19 A3004 RMK A01 T02550194  RH  069%=      5-min Rain = 0
KCL2 261819Z 18013KT 26/19 A3004 RMK A01 T02560193  RH  068%=      5-min Rain = 0
KCL2 261820Z 17017KT 26/19 A3004 RMK A01 T02560193  RH  068%=      5-min Rain = 0
KCL2 261821Z 18014KT 26/19 A3004 RMK A01 T02560193  RH  068%=      5-min Rain = 0
KCL2 261822Z 18013KT 26/19 A3004 RMK A01 T02550193  RH  068%=      5-min Rain = 0
KCL2 261823Z 18012KT 26/19 A3004 RMK A01 T02550194  RH  069%=      5-min Rain = 0
KCL2 261824Z 17008KT 26/20 A3004 RMK A01 T02550195  RH  070%=      5-min Rain = 0
KCL2 261825Z 17009KT 26/20 A3004 RMK A01 T02550197  RH  070%=      5-min Rain = 0
KCL2 261826Z 16011KT 26/20 A3004 RMK A01 T02560196  RH  070%=      5-min Rain = 0
KCL2 261827Z 17013G18KT 26/20 A3004 RMK A01 T02560195  RH  069%=      5-min Rain = 0
KCL2 261828Z 17014G19KT 26/19 A3004 RMK A01 T02550194  RH  069%=      5-min Rain = 0
KCL2 261829Z 17014KT 25/19 A3004 RMK A01 T02540193  RH  069%=      5-min Rain = 0
KCL2 261830Z 17013KT 25/19 A3004 RMK A01 T02540194  RH  069%=      5-min Rain = 0
KCL2 261831Z 17011KT 25/19 A3004 RMK A01 T02540194  RH  069%=      5-min Rain = 0
KCL2 261832Z 16011KT 25/20 A3004 RMK A01 T02540195  RH  070%=      5-min Rain = 0
KCL2 261833Z 17011KT 25/20 A3004 RMK A01 T02540196  RH  070%=      5-min Rain = 0
KCL2 261834Z 16010KT 26/20 A3004 RMK A01 T02550197  RH  070%=      5-min Rain = 0
KCL2 261835Z 16011KT 26/20 A3004 RMK A01 T02550195  RH  069%=      5-min Rain = 0
KCL2 261836Z 16014KT 26/20 A3004 RMK A01 T02550196  RH  070%=      5-min Rain = 0
KCL2 261837Z 16013KT 26/20 A3004 RMK A01 T02550195  RH  070%=      5-min Rain = 0
KCL2 261838Z 17013G20KT 25/20 A3004 RMK A01 T02540195  RH  069%=      5-min Rain = 0
KCL2 261839Z 16014KT 25/19 A3004 RMK A01 T02540194  RH  069%=      5-min Rain = 0
KCL2 261840Z 16011G16KT 26/20 A3004 RMK A01 T02550195  RH  070%=      5-min Rain = 0
KCL2 261841Z 16011KT 26/20 A3004 RMK A01 T02560197  RH  070%=      5-min Rain = 0
KCL2 261842Z 16011KT 26/20 A3004 RMK A01 T02560197  RH  070%=      5-min Rain = 0
KCL2 261843Z 16012KT 26/20 A3004 RMK A01 T02570197  RH  069%=      5-min Rain = 0
KCL2 261844Z 16011KT 26/20 A3004 RMK A01 T02580197  RH  069%=      5-min Rain = 0
KCL2 261845Z 16015KT 26/20 A3004 RMK A01 T02590196  RH  068%=      5-min Rain = 0
KCL2 261846Z 16017G22KT 26/20 A3004 RMK A01 T02590195  RH  068%=      5-min Rain = 0
KCL2 261847Z 17015KT 26/20 A3003 RMK A01 T02590195  RH  067%=      5-min Rain = 0
KCL2 261848Z 16014KT 26/20 A3003 RMK A01 T02590196  RH  068%=      5-min Rain = 0
KCL2 261849Z 16015G20KT 26/20 A3003 RMK A01 T02600196  RH  068%=      5-min Rain = 0
KCL2 261850Z 16014KT 26/20 A3003 RMK A01 T02600196  RH  068%=      5-min Rain = 0
KCL2 261851Z 16015KT 26/20 A3003 RMK A01 T02600195  RH  067%=      5-min Rain = 0
KCL2 261852Z 16014KT 26/20 A3003 RMK A01 T02600195  RH  068%=      5-min Rain = 0
KCL2 261853Z 15015KT 26/20 A3003 RMK A01 T02600197  RH  068%=      5-min Rain = 0
KCL2 261854Z 15016G24KT 26/20 A3003 RMK A01 T02600196  RH  068%=      5-min Rain = 0
KCL2 261855Z 15015G21KT 26/20 A3003 RMK A01 T02600195  RH  067%=      5-min Rain = 0
KCL2 261856Z 17013G19KT 26/20 A3003 RMK A01 T02610197  RH  068%=      5-min Rain = 0
KCL2 261857Z 15012KT 26/20 A3003 RMK A01 T02640200  RH  068%=      5-min Rain = 0
KCL2 261858Z 17017G23KT 27/20 A3003 RMK A01 T02650199  RH  067%=      5-min Rain = 0
KCL2 261859Z 17016G21KT 27/20 A3003 RMK A01 T02650197  RH  066%=      5-min Rain = 0
KCL2 261900Z 17014G19KT 26/20 A3003 RMK A01 T02640197  RH  067%=      5-min Rain = 0
KCL2 261901Z 16014G20KT 26/20 A3003 RMK A01 T02640196  RH  066%=      5-min Rain = 0
KCL2 261902Z 15015KT 27/20 A3003 RMK A01 T02650197  RH  066%=      5-min Rain = 0
KCL2 261903Z 17012KT 27/20 A3003 RMK A01 T02650199  RH  067%=      5-min Rain = 0
KCL2 261904Z 16013KT 26/20 A3003 RMK A01 T02640200  RH  068%=      5-min Rain = 0
KCL2 261905Z 17013KT 26/20 A3003 RMK A01 T02640198  RH  067%=      5-min Rain = 0
KCL2 261906Z 17013G19KT 26/20 A3003 RMK A01 T02640200  RH  068%=      5-min Rain = 0
KCL2 261907Z 17016G21KT 26/20 A3003 RMK A01 T02630197  RH  067%=      5-min Rain = 0
KCL2 261908Z 18015G20KT 26/20 A3003 RMK A01 T02610198  RH  068%=      5-min Rain = 0
KCL2 261909Z 17015G21KT 26/20 A3003 RMK A01 T02610197  RH  068%=      5-min Rain = 0
KCL2 261910Z 17014KT 26/20 A3003 RMK A01 T02610197  RH  068%=      5-min Rain = 0
KCL2 261911Z 16015KT 26/20 A3003 RMK A01 T02610197  RH  068%=      5-min Rain = 0
KCL2 261912Z 16014KT 26/20 A3003 RMK A01 T02610198  RH  068%=      5-min Rain = 0
KCL2 261913Z 17014KT 26/20 A3003 RMK A01 T02620198  RH  068%=      5-min Rain = 0
KCL2 261914Z 16015KT 26/20 A3003 RMK A01 T02620198  RH  068%=      5-min Rain = 0
KCL2 261915Z 16017G22KT 26/20 A3003 RMK A01 T02640198  RH  067%=      5-min Rain = 0
KCL2 261916Z 17016G22KT 27/20 A3003 RMK A01 T02660197  RH  066%=      5-min Rain = 0
KCL2 261917Z 16011KT 27/20 A3003 RMK A01 T02670201  RH  067%=      5-min Rain = 0
KCL2 261918Z 16013G18KT 27/20 A3003 RMK A01 T02700202  RH  066%=      5-min Rain = 0
KCL2 261919Z 18014KT 27/20 A3003 RMK A01 T02720200  RH  065%=      5-min Rain = 0
KCL2 261920Z 17013G21KT 27/20 A3003 RMK A01 T02720202  RH  065%=      5-min Rain = 0
KCL2 261921Z 17018G24KT 27/20 A3003 RMK A01 T02710198  RH  064%=      5-min Rain = 0
KCL2 261922Z 17018G24KT 27/20 A3003 RMK A01 T02680195  RH  064%=      5-min Rain = 0
KCL2 261923Z 17019KT 27/20 A3003 RMK A01 T02670196  RH  065%=      5-min Rain = 0
KCL2 261924Z 16018KT 27/20 A3003 RMK A01 T02660196  RH  065%=      5-min Rain = 0
KCL2 261925Z 16015KT 27/20 A3003 RMK A01 T02650196  RH  066%=      5-min Rain = 0
KCL2 261926Z 17015G21KT 27/20 A3003 RMK A01 T02650196  RH  066%=      5-min Rain = 0
KCL2 261927Z 17015KT 26/20 A3003 RMK A01 T02640196  RH  066%=      5-min Rain = 0
KCL2 261928Z 16015KT 26/20 A3003 RMK A01 T02640195  RH  066%=      5-min Rain = 0
KCL2 261929Z 16016KT 26/20 A3003 RMK A01 T02640196  RH  066%=      5-min Rain = 0
KCL2 261930Z 16014KT 26/20 A3003 RMK A01 T02640196  RH  066%=      5-min Rain = 0
KCL2 261931Z 16015KT 26/20 A3003 RMK A01 T02640196  RH  066%=      5-min Rain = 0
KCL2 261932Z 18013KT 26/20 A3003 RMK A01 T02640197  RH  066%=      5-min Rain = 0
KCL2 261933Z 17013KT 26/20 A3003 RMK A01 T02630197  RH  067%=      5-min Rain = 0
KCL2 261934Z 17014G21KT 26/20 A3003 RMK A01 T02630198  RH  067%=      5-min Rain = 0
KCL2 261935Z 17014G21KT 26/20 A3003 RMK A01 T02630196  RH  067%=      5-min Rain = 0
KCL2 261936Z 17014G19KT 26/20 A3003 RMK A01 T02620197  RH  067%=      5-min Rain = 0
KCL2 261937Z 17013G21KT 26/20 A3003 RMK A01 T02610197  RH  067%=      5-min Rain = 0
KCL2 261938Z 16016KT 26/20 A3003 RMK A01 T02620196  RH  067%=      5-min Rain = 0
KCL2 261939Z 16013KT 26/20 A3003 RMK A01 T02630197  RH  067%=      5-min Rain = 0
KCL2 261940Z 17014KT 26/20 A3003 RMK A01 T02630197  RH  067%=      5-min Rain = 0
KCL2 261941Z 16013KT 26/20 A3003 RMK A01 T02640199  RH  067%=      5-min Rain = 0
KCL2 261942Z 16015KT 27/20 A3003 RMK A01 T02660197  RH  066%=      5-min Rain = 0
KCL2 261943Z 18014KT 27/20 A3003 RMK A01 T02660197  RH  066%=      5-min Rain = 0
KCL2 261944Z 17015G20KT 27/20 A3002 RMK A01 T02660198  RH  066%=      5-min Rain = 0
KCL2 261945Z 17012KT 27/20 A3003 RMK A01 T02660199  RH  067%=      5-min Rain = 0
KCL2 261946Z 17012KT 27/20 A3003 RMK A01 T02670200  RH  067%=      5-min Rain = 0
KCL2 261947Z 17012KT 27/20 A3002 RMK A01 T02670201  RH  067%=      5-min Rain = 0
KCL2 261948Z 17009KT 27/20 A3002 RMK A01 T02680201  RH  067%=      5-min Rain = 0
KCL2 261949Z 15012G19KT 27/20 A3002 RMK A01 T02680201  RH  067%=      5-min Rain = 0
KCL2 261950Z 16013KT 27/20 A3002 RMK A01 T02680199  RH  066%=      5-min Rain = 0
KCL2 261951Z 17010KT 27/20 A3002 RMK A01 T02670201  RH  067%=      5-min Rain = 0
KCL2 261952Z 17011KT 27/21 A3002 RMK A01 T02700205  RH  068%=      5-min Rain = 0
KCL2 261953Z 16012KT 27/20 A3002 RMK A01 T02710199  RH  065%=      5-min Rain = 0
KCL2 261954Z 17017KT 27/20 A3002 RMK A01 T02720199  RH  064%=      5-min Rain = 0
KCL2 261955Z 17017G23KT 27/20 A3002 RMK A01 T02730198  RH  063%=      5-min Rain = 0
KCL2 261956Z 16017G22KT 27/20 A3002 RMK A01 T02740196  RH  062%=      5-min Rain = 0
KCL2 261957Z 16014KT 27/20 A3002 RMK A01 T02740199  RH  064%=      5-min Rain = 0
KCL2 261958Z 16014KT 27/20 A3002 RMK A01 T02740197  RH  063%=      5-min Rain = 0
KCL2 261959Z 15017G22KT 27/20 A3002 RMK A01 T02730195  RH  062%=      5-min Rain = 0
KCL2 262000Z 17012G18KT 27/20 A3002 RMK A01 T02710195  RH  063%=      5-min Rain = 0
KCL2 262001Z 17015G21KT 27/20 A3002 RMK A01 T02700196  RH  064%=      5-min Rain = 0
KCL2 262002Z 17016KT 27/19 A3002 RMK A01 T02710194  RH  063%=      5-min Rain = 0
KCL2 262003Z 16017KT 27/19 A3002 RMK A01 T02710192  RH  062%=      5-min Rain = 0
KCL2 262004Z 16019G24KT 27/19 A3002 RMK A01 T02710191  RH  061%=      5-min Rain = 0
KCL2 262005Z 17018KT 27/19 A3002 RMK A01 T02720191  RH  061%=      5-min Rain = 0
KCL2 262006Z 17015G20KT 27/19 A3002 RMK A01 T02730193  RH  062%=      5-min Rain = 0
KCL2 262007Z 17015KT 27/19 A3002 RMK A01 T02740192  RH  061%=      5-min Rain = 0
KCL2 262008Z 17015G20KT 27/19 A3002 RMK A01 T02740194  RH  062%=      5-min Rain = 0
KCL2 262009Z 17015KT 28/19 A3001 RMK A01 T02750191  RH  060%=      5-min Rain = 0
KCL2 262010Z 17014KT 27/19 A3002 RMK A01 T02740193  RH  061%=      5-min Rain = 0
KCL2 262011Z 16012KT 27/20 A3002 RMK A01 T02740196  RH  062%=      5-min Rain = 0
KCL2 262012Z 17015KT 27/19 A3002 RMK A01 T02740194  RH  061%=      5-min Rain = 0
KCL2 262013Z 17015KT 27/19 A3002 RMK A01 T02740194  RH  062%=      5-min Rain = 0
KCL2 262014Z 17012G17KT 27/19 A3002 RMK A01 T02740194  RH  062%=      5-min Rain = 0
KCL2 262015Z 18013G19KT 27/20 A3002 RMK A01 T02740195  RH  062%=      5-min Rain = 0
KCL2 262016Z 18017KT 28/20 A3002 RMK A01 T02760197  RH  062%=      5-min Rain = 0
KCL2 262017Z 16015KT 28/20 A3002 RMK A01 T02790196  RH  061%=      5-min Rain = 0
KCL2 262018Z 17015KT 28/20 A3002 RMK A01 T02800196  RH  060%=      5-min Rain = 0
KCL2 262019Z 17014G20KT 28/19 A3002 RMK A01 T02800194  RH  060%=      5-min Rain = 0
KCL2 262020Z 17015KT 28/19 A3002 RMK A01 T02800194  RH  060%=      5-min Rain = 0
KCL2 262021Z 16017KT 28/19 A3002 RMK A01 T02780193  RH  060%=      5-min Rain = 0
KCL2 262022Z 17016KT 28/19 A3002 RMK A01 T02760193  RH  060%=      5-min Rain = 0
KCL2 262023Z 17017G22KT 28/19 A3002 RMK A01 T02760193  RH  061%=      5-min Rain = 0
KCL2 262024Z 16018G23KT 28/19 A3002 RMK A01 T02750192  RH  061%=      5-min Rain = 0
KCL2 262025Z 16018KT 27/19 A3002 RMK A01 T02740190  RH  060%=      5-min Rain = 0
KCL2 262026Z 16017KT 27/19 A3002 RMK A01 T02730189  RH  060%=      5-min Rain = 0
KCL2 262027Z 16015G20KT 27/19 A3002 RMK A01 T02720189  RH  060%=      5-min Rain = 0
KCL2 262028Z 16018KT 27/19 A3002 RMK A01 T02710189  RH  061%=      5-min Rain = 0
KCL2 262029Z 17013KT 27/19 A3001 RMK A01 T02720191  RH  061%=      5-min Rain = 0
KCL2 262030Z 17014KT 27/19 A3001 RMK A01 T02720191  RH  061%=      5-min Rain = 0
KCL2 262031Z 16013KT 27/19 A3001 RMK A01 T02720191  RH  061%=      5-min Rain = 0
KCL2 262032Z 17011G17KT 27/19 A3001 RMK A01 T02730192  RH  061%=      5-min Rain = 0
KCL2 262033Z 16013KT 27/19 A3001 RMK A01 T02730193  RH  061%=      5-min Rain = 0
KCL2 262034Z 17014KT 27/19 A3001 RMK A01 T02730193  RH  062%=      5-min Rain = 0
KCL2 262035Z 16019KT 27/19 A3001 RMK A01 T02740191  RH  060%=      5-min Rain = 0
KCL2 262036Z 16017KT 28/19 A3001 RMK A01 T02750191  RH  060%=      5-min Rain = 0
KCL2 262037Z 16013G19KT 28/19 A3001 RMK A01 T02750192  RH  060%=      5-min Rain = 0
KCL2 262038Z 16016KT 28/19 A3001 RMK A01 T02770193  RH  060%=      5-min Rain = 0
KCL2 262039Z 15012KT 28/19 A3001 RMK A01 T02780194  RH  060%=      5-min Rain = 0
KCL2 262040Z 16015KT 28/19 A3001 RMK A01 T02810194  RH  059%=      5-min Rain = 0
KCL2 262041Z 17016KT 28/20 A3001 RMK A01 T02820195  RH  059%=      5-min Rain = 0
KCL2 262042Z 15018G24KT 28/20 A3001 RMK A01 T02830197  RH  059%=      5-min Rain = 0
KCL2 262043Z 15016KT 28/20 A3001 RMK A01 T02840195  RH  059%=      5-min Rain = 0
KCL2 262044Z 16015G20KT 28/20 A3001 RMK A01 T02820196  RH  059%=      5-min Rain = 0
KCL2 262045Z 17015G22KT 28/19 A3001 RMK A01 T02800193  RH  059%=      5-min Rain = 0
KCL2 262046Z 16014KT 28/19 A3001 RMK A01 T02790194  RH  060%=      5-min Rain = 0
KCL2 262047Z 16015KT 28/19 A3001 RMK A01 T02770194  RH  060%=      5-min Rain = 0
KCL2 262048Z 16012KT 28/19 A3001 RMK A01 T02770193  RH  060%=      5-min Rain = 0
KCL2 262049Z 16013KT 28/19 A3001 RMK A01 T02780194  RH  061%=      5-min Rain = 0
KCL2 262050Z 16014KT 28/20 A3001 RMK A01 T02780195  RH  060%=      5-min Rain = 0
KCL2 262051Z 16015KT 28/19 A3001 RMK A01 T02780193  RH  060%=      5-min Rain = 0
KCL2 262052Z 16011KT 28/19 A3001 RMK A01 T02770194  RH  060%=      5-min Rain = 0
KCL2 262053Z 16012KT 28/20 A3001 RMK A01 T02770197  RH  061%=      5-min Rain = 0
KCL2 262054Z 17016KT 28/19 A3001 RMK A01 T02780193  RH  060%=      5-min Rain = 0
KCL2 262055Z 17017KT 28/19 A3001 RMK A01 T02770191  RH  060%=      5-min Rain = 0
KCL2 262056Z 17011KT 28/19 A3001 RMK A01 T02770194  RH  061%=      5-min Rain = 0
KCL2 262057Z 16013KT 28/19 A3001 RMK A01 T02780194  RH  060%=      5-min Rain = 0
KCL2 262058Z 16011G16KT 28/20 A3001 RMK A01 T02800196  RH  061%=      5-min Rain = 0
KCL2 262059Z 15013KT 28/20 A3001 RMK A01 T02820196  RH  059%=      5-min Rain = 0
KCL2 262100Z 16014KT 28/19 A3001 RMK A01 T02840194  RH  058%=      5-min Rain = 0
KCL2 262101Z 16016KT 28/19 A3001 RMK A01 T02840192  RH  057%=      5-min Rain = 0
KCL2 262102Z 16015KT 28/19 A3001 RMK A01 T02830191  RH  057%=      5-min Rain = 0
KCL2 262103Z 16013G18KT 28/19 A3001 RMK A01 T02820191  RH  058%=      5-min Rain = 0
KCL2 262104Z 16012KT 28/19 A30 RMK A01 T02810194  RH  059%=      5-min Rain = 0
KCL2 262105Z 17013KT 28/19 A30 RMK A01 T02810194  RH  059%=      5-min Rain = 0
KCL2 262106Z 17010KT 28/20 A30 RMK A01 T02810195  RH  059%=      5-min Rain = 0
KCL2 262107Z 18014KT 28/20 A30 RMK A01 T02810195  RH  059%=      5-min Rain = 0
KCL2 262108Z 17013KT 28/20 A30 RMK A01 T02820195  RH  059%=      5-min Rain = 0
KCL2 262109Z 18011KT 28/20 A30 RMK A01 T02840199  RH  060%=      5-min Rain = 0
KCL2 262110Z 18016KT 29/20 A30 RMK A01 T02870196  RH  058%=      5-min Rain = 0
KCL2 262111Z 18017KT 29/19 A30 RMK A01 T02870194  RH  057%=      5-min Rain = 0
KCL2 262112Z 17012G18KT 29/20 A30 RMK A01 T02870195  RH  058%=      5-min Rain = 0
KCL2 262113Z 17009KT 29/20 A30 RMK A01 T02880200  RH  059%=      5-min Rain = 0
KCL2 262114Z 15010G18KT 29/20 A30 RMK A01 T02910202  RH  059%=      5-min Rain = 0
KCL2 262115Z 15015KT 29/20 A30 RMK A01 T02920197  RH  057%=      5-min Rain = 0
KCL2 262116Z 16013KT 29/20 A30 RMK A01 T02900197  RH  057%=      5-min Rain = 0
KCL2 262117Z 17012KT 29/20 A30 RMK A01 T02880199  RH  059%=      5-min Rain = 0
KCL2 262118Z 17015G21KT 29/20 A30 RMK A01 T02870198  RH  058%=      5-min Rain = 0
KCL2 262119Z 16014KT 29/19 A30 RMK A01 T02850193  RH  057%=      5-min Rain = 0
KCL2 262120Z 17012KT 28/20 A30 RMK A01 T02830195  RH  059%=      5-min Rain = 0
KCL2 262121Z 16012KT 28/20 A30 RMK A01 T02830196  RH  059%=      5-min Rain = 0
KCL2 262122Z 15014G19KT 28/19 A30 RMK A01 T02830194  RH  059%=      5-min Rain = 0
KCL2 262123Z 16014KT 28/20 A30 RMK A01 T02830195  RH  059%=      5-min Rain = 0
KCL2 262124Z 16013G18KT 28/20 A30 RMK A01 T02830195  RH  059%=      5-min Rain = 0
KCL2 262125Z 17014KT 28/19 A30 RMK A01 T02820191  RH  058%=      5-min Rain = 0
KCL2 262126Z 17017G24KT 28/19 A30 RMK A01 T02810189  RH  057%=      5-min Rain = 0
KCL2 262127Z 16017KT 28/19 A30 RMK A01 T02810190  RH  058%=      5-min Rain = 0
KCL2 262128Z 18017G22KT 28/19 A30 RMK A01 T02800191  RH  058%=      5-min Rain = 0
KCL2 262129Z 18017KT 28/19 A30 RMK A01 T02810190  RH  058%=      5-min Rain = 0
KCL2 262130Z 18017KT 28/19 A30 RMK A01 T02800191  RH  058%=      5-min Rain = 0
KCL2 262131Z 16014KT 28/19 A30 RMK A01 T02790192  RH  059%=      5-min Rain = 0
KCL2 262132Z 16017G22KT 28/19 A30 RMK A01 T02780192  RH  059%=      5-min Rain = 0
KCL2 262133Z 15016KT 28/19 A30 RMK A01 T02780192  RH  059%=      5-min Rain = 0
KCL2 262134Z 15015KT 28/19 A30 RMK A01 T02770194  RH  060%=      5-min Rain = 0
KCL2 262135Z 16017KT 28/19 A2999 RMK A01 T02770193  RH  060%=      5-min Rain = 0
KCL2 262136Z 16017KT 28/19 A2999 RMK A01 T02770193  RH  060%=      5-min Rain = 0
KCL2 262137Z 15017KT 28/19 A2999 RMK A01 T02780193  RH  060%=      5-min Rain = 0
KCL2 262138Z 15016KT 28/19 A2999 RMK A01 T02770193  RH  060%=      5-min Rain = 0
KCL2 262139Z 15015KT 28/19 A2999 RMK A01 T02780193  RH  060%=      5-min Rain = 0
KCL2 262140Z 16013G18KT 28/19 A2999 RMK A01 T02780193  RH  060%=      5-min Rain = 0
KCL2 262141Z 15013KT 28/19 A2999 RMK A01 T02780193  RH  060%=      5-min Rain = 0
KCL2 262142Z 15014KT 28/19 A2999 RMK A01 T02780194  RH  060%=      5-min Rain = 0
KCL2 262143Z 15014KT 28/19 A2999 RMK A01 T02780194  RH  060%=      5-min Rain = 0
KCL2 262144Z 16015G24KT 28/19 A2999 RMK A01 T02770194  RH  061%=      5-min Rain = 0
KCL2 262145Z 15018KT 28/19 A2999 RMK A01 T02770192  RH  060%=      5-min Rain = 0
KCL2 262146Z 15017G22KT 28/19 A2999 RMK A01 T02770191  RH  060%=      5-min Rain = 0
KCL2 262147Z 16017KT 28/19 A2999 RMK A01 T02760191  RH  060%=      5-min Rain = 0
KCL2 262148Z 16015KT 28/19 A2999 RMK A01 T02760192  RH  060%=      5-min Rain = 0
KCL2 262149Z 16012KT 28/19 A2999 RMK A01 T02760192  RH  060%=      5-min Rain = 0
KCL2 262150Z 15012G18KT 28/20 A2999 RMK A01 T02770196  RH  062%=      5-min Rain = 0
KCL2 262151Z 15013G21KT 28/20 A2999 RMK A01 T02780195  RH  061%=      5-min Rain = 0
KCL2 262152Z 17017KT 28/19 A2998 RMK A01 T02780193  RH  060%=      5-min Rain = 0
KCL2 262153Z 16015KT 28/19 A2999 RMK A01 T02780192  RH  060%=      5-min Rain = 0
KCL2 262154Z 15015KT 28/19 A2998 RMK A01 T02780192  RH  060%=      5-min Rain = 0
KCL2 262155Z 16014KT 28/19 A2998 RMK A01 T02770192  RH  060%=      5-min Rain = 0
KCL2 262156Z 16013KT 28/19 A2999 RMK A01 T02760192  RH  060%=      5-min Rain = 0
KCL2 262157Z 16011KT 28/19 A2998 RMK A01 T02760193  RH  060%=      5-min Rain = 0
KCL2 262158Z 16013KT 28/19 A2998 RMK A01 T02760192  RH  060%=      5-min Rain = 0
KCL2 262159Z 16015G20KT 28/19 A2998 RMK A01 T02760192  RH  060%=      5-min Rain = 0
KCL2 262200Z 16013G19KT 28/19 A2998 RMK A01 T02750192  RH  060%=      5-min Rain = 0
KCL2 262201Z 16014KT 28/19 A2998 RMK A01 T02750191  RH  060%=      5-min Rain = 0
KCL2 262202Z 16014KT 28/19 A2998 RMK A01 T02750192  RH  060%=      5-min Rain = 0
KCL2 262203Z 15014KT 28/19 A2998 RMK A01 T02760191  RH  060%=      5-min Rain = 0
KCL2 262204Z 16010KT 28/19 A2998 RMK A01 T02760193  RH  060%=      5-min Rain = 0
KCL2 262205Z 16014G19KT 28/19 A2998 RMK A01 T02770193  RH  060%=      5-min Rain = 0
KCL2 262206Z 16014KT 28/19 A2998 RMK A01 T02780193  RH  060%=      5-min Rain = 0
KCL2 262207Z 16012KT 28/19 A2998 RMK A01 T02790194  RH  060%=      5-min Rain = 0
KCL2 262208Z 16012G17KT 28/19 A2998 RMK A01 T02790194  RH  060%=      5-min Rain = 0
KCL2 262209Z 16013KT 28/19 A2998 RMK A01 T02800194  RH  060%=      5-min Rain = 0
KCL2 262210Z 16015KT 28/19 A2998 RMK A01 T02820194  RH  059%=      5-min Rain = 0
KCL2 262211Z 16014KT 28/19 A2998 RMK A01 T02840194  RH  058%=      5-min Rain = 0
KCL2 262212Z 16017KT 29/19 A2998 RMK A01 T02850194  RH  058%=      5-min Rain = 0
KCL2 262213Z 17013KT 29/19 A2998 RMK A01 T02860194  RH  057%=      5-min Rain = 0
KCL2 262214Z 16014KT 29/20 A2998 RMK A01 T02860196  RH  058%=      5-min Rain = 0
KCL2 262215Z 16015KT 29/19 A2998 RMK A01 T02850193  RH  057%=      5-min Rain = 0
KCL2 262216Z 16013G18KT 29/19 A2998 RMK A01 T02850194  RH  058%=      5-min Rain = 0
KCL2 262217Z 16013G19KT 28/19 A2998 RMK A01 T02840194  RH  058%=      5-min Rain = 0
KCL2 262218Z 15013G18KT 28/20 A2998 RMK A01 T02840195  RH  059%=      5-min Rain = 0
KCL2 262219Z 16015G20KT 28/19 A2998 RMK A01 T02830192  RH  058%=      5-min Rain = 0
KCL2 262220Z 17010KT 28/20 A2998 RMK A01 T02820195  RH  059%=      5-min Rain = 0
KCL2 262221Z 17013KT 28/19 A2998 RMK A01 T02820194  RH  059%=      5-min Rain = 0
KCL2 262222Z 17013KT 28/20 A2998 RMK A01 T02820195  RH  059%=      5-min Rain = 0
KCL2 262223Z 17011KT 28/20 A2998 RMK A01 T02810195  RH  060%=      5-min Rain = 0
KCL2 262224Z 16015KT 28/19 A2998 RMK A01 T02800192  RH  059%=      5-min Rain = 0
KCL2 262225Z 16017G22KT 28/19 A2998 RMK A01 T02790192  RH  059%=      5-min Rain = 0
KCL2 262226Z 16016KT 28/19 A2997 RMK A01 T02790190  RH  058%=      5-min Rain = 0
KCL2 262227Z 16016KT 28/19 A2997 RMK A01 T02790190  RH  058%=      5-min Rain = 0
KCL2 262228Z 16014KT 28/19 A2997 RMK A01 T02790192  RH  059%=      5-min Rain = 0
KCL2 262229Z 17017G22KT 28/19 A2997 RMK A01 T02790191  RH  059%=      5-min Rain = 0
KCL2 262230Z 18016KT 28/19 A2997 RMK A01 T02780190  RH  059%=      5-min Rain = 0
KCL2 262231Z 17013G19KT 28/19 A2997 RMK A01 T02780191  RH  059%=      5-min Rain = 0
KCL2 262232Z 16011KT 28/19 A2998 RMK A01 T02780193  RH  060%=      5-min Rain = 0
KCL2 262233Z 16010KT 28/19 A2998 RMK A01 T02780194  RH  060%=      5-min Rain = 0
KCL2 262234Z 17014KT 28/19 A2997 RMK A01 T02780192  RH  060%=      5-min Rain = 0
KCL2 262235Z 17012KT 28/19 A2998 RMK A01 T02780192  RH  060%=      5-min Rain = 0
KCL2 262236Z 16011KT 28/19 A2997 RMK A01 T02770192  RH  060%=      5-min Rain = 0
KCL2 262237Z 16012G17KT 28/19 A2997 RMK A01 T02770192  RH  060%=      5-min Rain = 0
KCL2 262238Z 15014KT 28/19 A2997 RMK A01 T02770191  RH  059%=      5-min Rain = 0
KCL2 262239Z 16013KT 28/19 A2997 RMK A01 T02770191  RH  059%=      5-min Rain = 0
KCL2 262240Z 16014G19KT 28/19 A2997 RMK A01 T02780192  RH  060%=      5-min Rain = 0
KCL2 262241Z 16010KT 28/19 A2997 RMK A01 T02790192  RH  059%=      5-min Rain = 0
KCL2 262242Z 17012KT 28/19 A2997 RMK A01 T02800193  RH  059%=      5-min Rain = 0
KCL2 262243Z 17012G17KT 28/19 A2997 RMK A01 T02800194  RH  059%=      5-min Rain = 0
KCL2 262244Z 17011KT 28/19 A2997 RMK A01 T02800194  RH  059%=      5-min Rain = 0
KCL2 262245Z 15010KT 28/19 A2997 RMK A01 T02800194  RH  059%=      5-min Rain = 0
KCL2 262246Z 16011KT 28/19 A2997 RMK A01 T02810194  RH  059%=      5-min Rain = 0
KCL2 262247Z 17010KT 28/20 A2997 RMK A01 T02800195  RH  060%=      5-min Rain = 0
KCL2 262248Z 16009KT 28/20 A2997 RMK A01 T02800196  RH  060%=      5-min Rain = 0
KCL2 262249Z 16009G14KT 28/20 A2996 RMK A01 T02800197  RH  061%=      5-min Rain = 0
KCL2 262250Z 15014KT 28/20 A2996 RMK A01 T02800196  RH  060%=      5-min Rain = 0
KCL2 262251Z 15014KT 28/19 A2996 RMK A01 T02800194  RH  060%=      5-min Rain = 0
KCL2 262252Z 16015KT 28/19 A2996 RMK A01 T02790193  RH  060%=      5-min Rain = 0
KCL2 262253Z 16012KT 28/19 A2996 RMK A01 T02780194  RH  060%=      5-min Rain = 0
KCL2 262254Z 16013KT 28/20 A2996 RMK A01 T02780195  RH  060%=      5-min Rain = 0
KCL2 262255Z 16012G17KT 28/19 A2996 RMK A01 T02780194  RH  060%=      5-min Rain = 0
KCL2 262256Z 16013KT 28/20 A2996 RMK A01 T02780196  RH  061%=      5-min Rain = 0
KCL2 262257Z 16011KT 28/20 A2996 RMK A01 T02790195  RH  060%=      5-min Rain = 0
KCL2 262258Z 16010KT 28/20 A2996 RMK A01 T02790197  RH  061%=      5-min Rain = 0
KCL2 262259Z 16010KT 28/20 A2996 RMK A01 T02790200  RH  062%=      5-min Rain = 0
KCL2 262300Z 15011KT 28/20 A2996 RMK A01 T02800199  RH  061%=      5-min Rain = 0
KCL2 262301Z 16014G19KT 28/20 A2996 RMK A01 T02800197  RH  061%=      5-min Rain = 0
KCL2 262302Z 16015G20KT 28/20 A2996 RMK A01 T02800195  RH  060%=      5-min Rain = 0
KCL2 262303Z 17014G19KT 28/20 A2996 RMK A01 T02790195  RH  060%=      5-min Rain = 0
KCL2 262304Z 17013KT 28/20 A2996 RMK A01 T02790195  RH  060%=      5-min Rain = 0
KCL2 262305Z 16012KT 28/20 A2996 RMK A01 T02780197  RH  061%=      5-min Rain = 0
KCL2 262306Z 15011KT 28/20 A2996 RMK A01 T02780197  RH  061%=      5-min Rain = 0
KCL2 262307Z 16008KT 28/20 A2996 RMK A01 T02780200  RH  062%=      5-min Rain = 0
KCL2 262308Z 15011KT 28/20 A2996 RMK A01 T02790200  RH  062%=      5-min Rain = 0
KCL2 262309Z 16015KT 28/20 A2996 RMK A01 T02790197  RH  061%=      5-min Rain = 0
KCL2 262310Z 16012KT 28/20 A2996 RMK A01 T02800198  RH  061%=      5-min Rain = 0
KCL2 262311Z 16011KT 28/20 A2996 RMK A01 T02800197  RH  061%=      5-min Rain = 0
KCL2 262312Z 16011KT 28/20 A2996 RMK A01 T02800197  RH  061%=      5-min Rain = 0
KCL2 262313Z 16012KT 28/20 A2996 RMK A01 T02790198  RH  061%=      5-min Rain = 0
KCL2 262314Z 16013KT 28/20 A2996 RMK A01 T02780197  RH  061%=      5-min Rain = 0
KCL2 262315Z 16014KT 28/20 A2996 RMK A01 T02780196  RH  061%=      5-min Rain = 0
KCL2 262316Z 16011KT 28/20 A2996 RMK A01 T02770197  RH  062%=      5-min Rain = 0
KCL2 262317Z 16012KT 28/20 A2996 RMK A01 T02770197  RH  062%=      5-min Rain = 0
KCL2 262318Z 16011KT 28/20 A2996 RMK A01 T02760198  RH  062%=      5-min Rain = 0
KCL2 262319Z 16013G18KT 28/20 A2996 RMK A01 T02760197  RH  062%=      5-min Rain = 0
KCL2 262320Z 16015KT 28/20 A2996 RMK A01 T02750196  RH  062%=      5-min Rain = 0
KCL2 262321Z 15013G18KT 28/20 A2996 RMK A01 T02750196  RH  062%=      5-min Rain = 0
KCL2 262322Z 16010KT 28/20 A2996 RMK A01 T02750197  RH  063%=      5-min Rain = 0
KCL2 262323Z 16010KT 28/20 A2996 RMK A01 T02750197  RH  062%=      5-min Rain = 0
KCL2 262324Z 16011KT 28/20 A2996 RMK A01 T02750197  RH  062%=      5-min Rain = 0
KCL2 262325Z 16010KT 28/20 A2996 RMK A01 T02750197  RH  063%=      5-min Rain = 0
KCL2 262326Z 16011KT 28/20 A2996 RMK A01 T02750197  RH  063%=      5-min Rain = 0
KCL2 262327Z 17009G14KT 27/20 A2996 RMK A01 T02740197  RH  063%=      5-min Rain = 0
KCL2 262328Z 16010KT 27/20 A2996 RMK A01 T02740198  RH  063%=      5-min Rain = 0
KCL2 262329Z 16013KT 27/20 A2996 RMK A01 T02740196  RH  063%=      5-min Rain = 0
KCL2 262330Z 16011KT 27/20 A2996 RMK A01 T02730196  RH  063%=      5-min Rain = 0
KCL2 262331Z 16010KT 27/20 A2996 RMK A01 T02740196  RH  063%=      5-min Rain = 0
KCL2 262332Z 16010KT 27/20 A2996 RMK A01 T02730198  RH  063%=      5-min Rain = 0
KCL2 262333Z 16013KT 27/20 A2996 RMK A01 T02730198  RH  063%=      5-min Rain = 0
KCL2 262334Z 16011KT 27/20 A2996 RMK A01 T02730196  RH  063%=      5-min Rain = 0
KCL2 262335Z 16012KT 27/20 A2996 RMK A01 T02730196  RH  063%=      5-min Rain = 0
KCL2 262336Z 16012KT 27/20 A2995 RMK A01 T02730195  RH  063%=      5-min Rain = 0
KCL2 262337Z 16012KT 27/19 A2995 RMK A01 T02720194  RH  062%=      5-min Rain = 0
KCL2 262338Z 16012KT 27/20 A2995 RMK A01 T02720195  RH  063%=      5-min Rain = 0
KCL2 262339Z 16012KT 27/19 A2995 RMK A01 T02720194  RH  062%=      5-min Rain = 0
KCL2 262340Z 16011KT 27/20 A2995 RMK A01 T02720195  RH  063%=      5-min Rain = 0
KCL2 262341Z 16010KT 27/19 A2995 RMK A01 T02720194  RH  063%=      5-min Rain = 0
KCL2 262342Z 16011KT 27/20 A2996 RMK A01 T02720195  RH  063%=      5-min Rain = 0
KCL2 262343Z 16010KT 27/20 A2996 RMK A01 T02710195  RH  063%=      5-min Rain = 0
KCL2 262344Z 16011KT 27/19 A2996 RMK A01 T02710194  RH  063%=      5-min Rain = 0
KCL2 262345Z 16009KT 27/20 A2996 RMK A01 T02710195  RH  063%=      5-min Rain = 0
KCL2 262346Z 16009KT 27/20 A2995 RMK A01 T02700195  RH  064%=      5-min Rain = 0
KCL2 262347Z 16011KT 27/20 A2995 RMK A01 T02700195  RH  063%=      5-min Rain = 0
KCL2 262348Z 15010KT 27/20 A2995 RMK A01 T02700195  RH  064%=      5-min Rain = 0
KCL2 262349Z 17010KT 27/20 A2995 RMK A01 T02700196  RH  064%=      5-min Rain = 0
KCL2 262350Z 16013KT 27/20 A2995 RMK A01 T02690195  RH  064%=      5-min Rain = 0
KCL2 262351Z 16010KT 27/19 A2995 RMK A01 T02700194  RH  063%=      5-min Rain = 0
KCL2 262352Z 16009KT 27/20 A2995 RMK A01 T02690195  RH  064%=      5-min Rain = 0
KCL2 262353Z 16010KT 27/20 A2995 RMK A01 T02700195  RH  064%=      5-min Rain = 0
KCL2 262354Z 16010KT 27/20 A2995 RMK A01 T02700195  RH  064%=      5-min Rain = 0
KCL2 262355Z 16010KT 27/20 A2995 RMK A01 T02690195  RH  064%=      5-min Rain = 0
KCL2 262356Z 16010KT 27/19 A2995 RMK A01 T02690194  RH  063%=      5-min Rain = 0
KCL2 262357Z 16010KT 27/20 A2995 RMK A01 T02690195  RH  064%=      5-min Rain = 0
KCL2 262358Z 16011KT 27/19 A2995 RMK A01 T02690194  RH  063%=      5-min Rain = 0
KCL2 262359Z 16011KT 27/19 A2995 RMK A01 T02690193  RH  063%=      5-min Rain = 0
KCL2 270000Z 16012KT 27/19 A2995 RMK A01 T02680193  RH  063%=      5-min Rain = 0
KCL2 270001Z 16013KT 27/19 A2995 RMK A01 T02680191  RH  063%=      5-min Rain = 0
KCL2 270002Z 17011KT 27/19 A2995 RMK A01 T02690191  RH  062%=      5-min Rain = 0
KCL2 270003Z 16010KT 27/19 A2995 RMK A01 T02690192  RH  063%=      5-min Rain = 0
KCL2 270004Z 16011KT 27/19 A2995 RMK A01 T02690192  RH  063%=      5-min Rain = 0
KCL2 270005Z 16013KT 27/19 A2995 RMK A01 T02690192  RH  063%=      5-min Rain = 0
KCL2 270006Z 16013G18KT 27/19 A2995 RMK A01 T02680191  RH  063%=      5-min Rain = 0
KCL2 270007Z 16012KT 27/19 A2995 RMK A01 T02680190  RH  062%=      5-min Rain = 0
KCL2 270008Z 15009KT 27/19 A2995 RMK A01 T02680192  RH  063%=      5-min Rain = 0
KCL2 270009Z 16010KT 27/19 A2995 RMK A01 T02670192  RH  064%=      5-min Rain = 0
KCL2 270010Z 16012KT 27/19 A2994 RMK A01 T02670191  RH  063%=      5-min Rain = 0
KCL2 270011Z 16009KT 27/19 A2994 RMK A01 T02670192  RH  063%=      5-min Rain = 0
KCL2 270012Z 15009KT 27/19 A2994 RMK A01 T02660192  RH  064%=      5-min Rain = 0
KCL2 270013Z 15009KT 27/19 A2994 RMK A01 T02660192  RH  064%=      5-min Rain = 0
KCL2 270014Z 15011KT 27/19 A2994 RMK A01 T02650192  RH  064%=      5-min Rain = 0
KCL2 270015Z 15010KT 27/19 A2994 RMK A01 T02650192  RH  064%=      5-min Rain = 0
KCL2 270016Z 15010KT 27/19 A2994 RMK A01 T02650192  RH  064%=      5-min Rain = 0
KCL2 270017Z 14010KT 26/19 A2993 RMK A01 T02640193  RH  065%=      5-min Rain = 0
KCL2 270018Z 15009KT 26/19 A2993 RMK A01 T02640194  RH  065%=      5-min Rain = 0
KCL2 270019Z 14009KT 26/19 A2993 RMK A01 T02640193  RH  065%=      5-min Rain = 0
KCL2 270020Z 14009KT 26/19 A2993 RMK A01 T02630194  RH  066%=      5-min Rain = 0
KCL2 270021Z 14011KT 26/19 A2993 RMK A01 T02630194  RH  066%=      5-min Rain = 0
KCL2 270022Z 14011KT 26/19 A2993 RMK A01 T02630194  RH  066%=      5-min Rain = 0
KCL2 270023Z 14010KT 26/19 A2992 RMK A01 T02630194  RH  066%=      5-min Rain = 0
KCL2 270024Z 14010KT 26/19 A2992 RMK A01 T02630194  RH  066%=      5-min Rain = 0
KCL2 270025Z 14010KT 26/19 A2992 RMK A01 T02630194  RH  066%=      5-min Rain = 0
KCL2 270026Z 15009KT 26/19 A2992 RMK A01 T02630194  RH  066%=      5-min Rain = 0
KCL2 270027Z 15010KT 26/19 A2992 RMK A01 T02630194  RH  066%=      5-min Rain = 0
KCL2 270028Z 15011KT 26/19 A2992 RMK A01 T02620194  RH  066%=      5-min Rain = 0
KCL2 270029Z 14010KT 26/19 A2992 RMK A01 T02630194  RH  066%=      5-min Rain = 0
KCL2 270030Z 14012G17KT 26/19 A2992 RMK A01 T02630194  RH  066%=      5-min Rain = 0
KCL2 270031Z 14011KT 26/19 A2992 RMK A01 T02620194  RH  066%=      5-min Rain = 0
KCL2 270032Z 15011KT 26/19 A2992 RMK A01 T02620193  RH  066%=      5-min Rain = 0
KCL2 270033Z 15012KT 26/19 A2992 RMK A01 T02620193  RH  066%=      5-min Rain = 0
KCL2 270034Z 14011KT 26/19 A2992 RMK A01 T02620193  RH  065%=      5-min Rain = 0
KCL2 270035Z 15010KT 26/19 A2992 RMK A01 T02630193  RH  066%=      5-min Rain = 0
KCL2 270036Z 15008KT 26/19 A2992 RMK A01 T02620194  RH  066%=      5-min Rain = 0
KCL2 270037Z 15010KT 26/19 A2992 RMK A01 T02630194  RH  066%=      5-min Rain = 0
KCL2 270038Z 15008KT 26/19 A2993 RMK A01 T02620194  RH  066%=      5-min Rain = 0
KCL2 270039Z 16009KT 26/19 A2993 RMK A01 T02620194  RH  066%=      5-min Rain = 0
KCL2 270040Z 15008KT 26/19 A2993 RMK A01 T02620194  RH  066%=      5-min Rain = 0
KCL2 270041Z 16011KT 26/19 A2993 RMK A01 T02620193  RH  066%=      5-min Rain = 0
KCL2 270042Z 15010KT 26/19 A2993 RMK A01 T02620193  RH  066%=      5-min Rain = 0
KCL2 270043Z 15010KT 26/19 A2993 RMK A01 T02620192  RH  065%=      5-min Rain = 0
KCL2 270044Z 15009KT 26/19 A2993 RMK A01 T02620192  RH  065%=      5-min Rain = 0
KCL2 270045Z 16011KT 26/19 A2993 RMK A01 T02620192  RH  065%=      5-min Rain = 0
KCL2 270046Z 16009KT 26/19 A2993 RMK A01 T02620191  RH  065%=      5-min Rain = 0
KCL2 270047Z 15008KT 26/19 A2993 RMK A01 T02620192  RH  065%=      5-min Rain = 0
KCL2 270048Z 16008KT 26/19 A2993 RMK A01 T02620192  RH  065%=      5-min Rain = 0
KCL2 270049Z 15008KT 26/19 A2993 RMK A01 T02610192  RH  066%=      5-min Rain = 0
KCL2 270050Z 15011KT 26/19 A2993 RMK A01 T02610192  RH  066%=      5-min Rain = 0
KCL2 270051Z 16009KT 26/19 A2993 RMK A01 T02610192  RH  066%=      5-min Rain = 0
KCL2 270052Z 14007KT 26/19 A2993 RMK A01 T02600192  RH  066%=      5-min Rain = 0
KCL2 270053Z 15009KT 26/19 A2993 RMK A01 T02600193  RH  066%=      5-min Rain = 0
KCL2 270054Z 15007KT 26/19 A2993 RMK A01 T02600192  RH  066%=      5-min Rain = 0
KCL2 270055Z 14008KT 26/19 A2993 RMK A01 T02600192  RH  066%=      5-min Rain = 0
KCL2 270056Z 14007KT 26/19 A2993 RMK A01 T02590192  RH  066%=      5-min Rain = 0
KCL2 270057Z 14007KT 26/19 A2993 RMK A01 T02590193  RH  067%=      5-min Rain = 0
KCL2 270058Z 14008KT 26/19 A2993 RMK A01 T02580193  RH  067%=      5-min Rain = 0
KCL2 270059Z 14009KT 26/19 A2993 RMK A01 T02580193  RH  067%=      5-min Rain = 0
KCL2 270100Z 15010KT 26/19 A2993 RMK A01 T02580192  RH  067%=      5-min Rain = 0
KCL2 270101Z 14009KT 26/19 A2993 RMK A01 T02580192  RH  067%=      5-min Rain = 0
KCL2 270102Z 14009KT 26/19 A2993 RMK A01 T02580193  RH  067%=      5-min Rain = 0
KCL2 270103Z 14008KT 26/19 A2993 RMK A01 T02580193  RH  068%=      5-min Rain = 0
KCL2 270104Z 15009KT 26/19 A2993 RMK A01 T02570194  RH  068%=      5-min Rain = 0
KCL2 270105Z 15011KT 26/19 A2993 RMK A01 T02560193  RH  068%=      5-min Rain = 0
KCL2 270106Z 15010G17KT 26/19 A2993 RMK A01 T02570193  RH  068%=      5-min Rain = 0
KCL2 270107Z 14008KT 26/19 A2993 RMK A01 T02570193  RH  068%=      5-min Rain = 0
KCL2 270108Z 15009KT 26/19 A2993 RMK A01 T02570193  RH  068%=      5-min Rain = 0
KCL2 270109Z 14007KT 26/19 A2993 RMK A01 T02560193  RH  068%=      5-min Rain = 0
KCL2 270110Z 15010KT 26/19 A2993 RMK A01 T02560194  RH  068%=      5-min Rain = 0
KCL2 270111Z 15008KT 26/19 A2992 RMK A01 T02550193  RH  068%=      5-min Rain = 0
KCL2 270112Z 15008G13KT 26/19 A2992 RMK A01 T02550193  RH  069%=      5-min Rain = 0
KCL2 270113Z 15010KT 26/19 A2992 RMK A01 T02550193  RH  068%=      5-min Rain = 0
KCL2 270114Z 15012KT 26/19 A2992 RMK A01 T02550192  RH  068%=      5-min Rain = 0
KCL2 270115Z 15012KT 26/19 A2992 RMK A01 T02560192  RH  068%=      5-min Rain = 0
KCL2 270116Z 15010KT 26/19 A2992 RMK A01 T02560192  RH  068%=      5-min Rain = 0
KCL2 270117Z 16011KT 26/19 A2992 RMK A01 T02560192  RH  068%=      5-min Rain = 0
KCL2 270118Z 15012KT 26/19 A2992 RMK A01 T02560192  RH  068%=      5-min Rain = 0
KCL2 270119Z 15013KT 26/19 A2992 RMK A01 T02560192  RH  068%=      5-min Rain = 0
KCL2 270120Z 15013G18KT 26/19 A2992 RMK A01 T02560192  RH  068%=      5-min Rain = 0
KCL2 270121Z 16013KT 26/19 A2992 RMK A01 T02560191  RH  067%=      5-min Rain = 0
KCL2 270122Z 15012KT 26/19 A2992 RMK A01 T02570192  RH  068%=      5-min Rain = 0
KCL2 270123Z 15010KT 26/19 A2992 RMK A01 T02570193  RH  068%=      5-min Rain = 0
KCL2 270124Z 15010KT 26/19 A2992 RMK A01 T02560192  RH  068%=      5-min Rain = 0
KCL2 270125Z 16013KT 26/19 A2992 RMK A01 T02550193  RH  068%=      5-min Rain = 0
KCL2 270126Z 16012KT 26/19 A2992 RMK A01 T02550192  RH  068%=      5-min Rain = 0
KCL2 270127Z 16012KT 26/19 A2992 RMK A01 T02550192  RH  068%=      5-min Rain = 0
KCL2 270128Z 15014KT 26/19 A2992 RMK A01 T02550192  RH  068%=      5-min Rain = 0
KCL2 270129Z 16014KT 26/19 A2992 RMK A01 T02550192  RH  068%=      5-min Rain = 0
KCL2 270130Z 15014KT 26/19 A2992 RMK A01 T02550191  RH  068%=      5-min Rain = 0
KCL2 270131Z 15010G15KT 26/19 A2992 RMK A01 T02560192  RH  068%=      5-min Rain = 0
KCL2 270132Z 15014KT 26/19 A2992 RMK A01 T02550192  RH  068%=      5-min Rain = 0
KCL2 270133Z 16012G17KT 26/19 A2992 RMK A01 T02550192  RH  068%=      5-min Rain = 0
KCL2 270134Z 15013KT 26/19 A2992 RMK A01 T02550192  RH  068%=      5-min Rain = 0
KCL2 270135Z 15013KT 26/19 A2992 RMK A01 T02550192  RH  068%=      5-min Rain = 0
KCL2 270136Z 15014KT 26/19 A2992 RMK A01 T02550191  RH  068%=      5-min Rain = 0
KCL2 270137Z 15012KT 26/19 A2992 RMK A01 T02550191  RH  068%=      5-min Rain = 0
KCL2 270138Z 15011KT 26/19 A2992 RMK A01 T02550192  RH  068%=      5-min Rain = 0
KCL2 270139Z 15013G18KT 25/19 A2991 RMK A01 T02540191  RH  068%=      5-min Rain = 0
KCL2 270140Z 15012KT 25/19 A2991 RMK A01 T02540191  RH  068%=      5-min Rain = 0
KCL2 270141Z 15012KT 25/19 A2991 RMK A01 T02540191  RH  068%=      5-min Rain = 0
KCL2 270142Z 15015KT 25/19 A2991 RMK A01 T02540191  RH  068%=      5-min Rain = 0
KCL2 270143Z 15015KT 25/19 A2991 RMK A01 T02540190  RH  068%=      5-min Rain = 0
KCL2 270144Z 15013G18KT 26/19 A2991 RMK A01 T02550191  RH  068%=      5-min Rain = 0
KCL2 270145Z 15014G20KT 26/19 A2991 RMK A01 T02550190  RH  068%=      5-min Rain = 0
KCL2 270146Z 16013G18KT 26/19 A2991 RMK A01 T02550191  RH  068%=      5-min Rain = 0
KCL2 270147Z 15013G18KT 25/19 A2991 RMK A01 T02540191  RH  068%=      5-min Rain = 0
KCL2 270148Z 15013KT 25/19 A2991 RMK A01 T02540190  RH  068%=      5-min Rain = 0
KCL2 270149Z 15013KT 25/19 A2991 RMK A01 T02540191  RH  068%=      5-min Rain = 0
KCL2 270150Z 16013KT 25/19 A2991 RMK A01 T02540191  RH  068%=      5-min Rain = 0
KCL2 270151Z 15014KT 25/19 A2991 RMK A01 T02530191  RH  068%=      5-min Rain = 0
KCL2 270152Z 15013KT 25/19 A2991 RMK A01 T02530190  RH  068%=      5-min Rain = 0
KCL2 270153Z 15016KT 25/19 A2991 RMK A01 T02530190  RH  068%=      5-min Rain = 0
KCL2 270154Z 15014KT 25/19 A2991 RMK A01 T02530190  RH  068%=      5-min Rain = 0
KCL2 270155Z 15012KT 25/19 A2991 RMK A01 T02530190  RH  068%=      5-min Rain = 0
KCL2 270156Z 15011KT 25/19 A2991 RMK A01 T02530191  RH  068%=      5-min Rain = 0
KCL2 270157Z 15012KT 25/19 A2991 RMK A01 T02530191  RH  068%=      5-min Rain = 0
KCL2 270158Z 15014KT 25/19 A2991 RMK A01 T02520190  RH  068%=      5-min Rain = 0
KCL2 270159Z 15012KT 25/19 A2991 RMK A01 T02520190  RH  068%=      5-min Rain = 0
KCL2 270200Z 15014G19KT 25/19 A2991 RMK A01 T02530190  RH  068%=      5-min Rain = 0
KCL2 270201Z 15014KT 25/19 A299 RMK A01 T02520190  RH  068%=      5-min Rain = 0
KCL2 270202Z 15012KT 25/19 A299 RMK A01 T02530190  RH  068%=      5-min Rain = 0
KCL2 270203Z 15013KT 25/19 A299 RMK A01 T02530191  RH  068%=      5-min Rain = 0
KCL2 270204Z 15012KT 25/19 A299 RMK A01 T02530190  RH  068%=      5-min Rain = 0
KCL2 270205Z 15012KT 25/19 A299 RMK A01 T02520191  RH  069%=      5-min Rain = 0
KCL2 270206Z 15014KT 25/19 A299 RMK A01 T02520191  RH  069%=      5-min Rain = 0
KCL2 270207Z 15012KT 25/19 A299 RMK A01 T02520190  RH  069%=      5-min Rain = 0
KCL2 270208Z 15012KT 25/19 A299 RMK A01 T02520190  RH  069%=      5-min Rain = 0
KCL2 270209Z 15011KT 25/19 A299 RMK A01 T02520190  RH  069%=      5-min Rain = 0
KCL2 270210Z 15014KT 25/19 A2991 RMK A01 T02520190  RH  069%=      5-min Rain = 0
KCL2 270211Z 15014G19KT 25/19 A2991 RMK A01 T02510190  RH  069%=      5-min Rain = 0
KCL2 270212Z 15014G20KT 25/19 A299 RMK A01 T02520190  RH  069%=      5-min Rain = 0
KCL2 270213Z 16014KT 25/19 A299 RMK A01 T02510190  RH  069%=      5-min Rain = 0
KCL2 270214Z 15014KT 25/19 A299 RMK A01 T02520191  RH  069%=      5-min Rain = 0
KCL2 270215Z 15015G20KT 25/19 A299 RMK A01 T02510190  RH  069%=      5-min Rain = 0
KCL2 270216Z 16016KT 25/19 A299 RMK A01 T02510190  RH  069%=      5-min Rain = 0
KCL2 270217Z 15015KT 25/19 A299 RMK A01 T02510190  RH  069%=      5-min Rain = 0
KCL2 270218Z 16015KT 25/19 A299 RMK A01 T02520190  RH  068%=      5-min Rain = 0
KCL2 270219Z 15014KT 25/19 A299 RMK A01 T02520190  RH  068%=      5-min Rain = 0
KCL2 270220Z 16015KT 25/19 A2991 RMK A01 T02520190  RH  069%=      5-min Rain = 0
KCL2 270221Z 16015KT 25/19 A299 RMK A01 T02520190  RH  069%=      5-min Rain = 0
KCL2 270222Z 16015KT 25/19 A299 RMK A01 T02510190  RH  069%=      5-min Rain = 0
KCL2 270223Z 15015KT 25/19 A299 RMK A01 T02510190  RH  069%=      5-min Rain = 0
KCL2 270224Z 15013KT 25/19 A299 RMK A01 T02520190  RH  069%=      5-min Rain = 0
KCL2 270225Z 16015G20KT 25/19 A299 RMK A01 T02510190  RH  069%=      5-min Rain = 0
KCL2 270226Z 15014KT 25/19 A299 RMK A01 T02510191  RH  069%=      5-min Rain = 0
KCL2 270227Z 16014G19KT 25/19 A299 RMK A01 T02510190  RH  069%=      5-min Rain = 0
KCL2 270228Z 16014KT 25/19 A299 RMK A01 T02500190  RH  069%=      5-min Rain = 0
KCL2 270229Z 15015KT 25/19 A299 RMK A01 T02500190  RH  069%=      5-min Rain = 0
KCL2 270230Z 16014KT 25/19 A299 RMK A01 T02500190  RH  069%=      5-min Rain = 0
KCL2 270231Z 16013KT 25/19 A299 RMK A01 T02510190  RH  069%=      5-min Rain = 0
KCL2 270232Z 16015KT 25/19 A299 RMK A01 T02500190  RH  069%=      5-min Rain = 0
KCL2 270233Z 16012KT 25/19 A299 RMK A01 T02500190  RH  069%=      5-min Rain = 0
KCL2 270234Z 15013G19KT 25/19 A299 RMK A01 T02500190  RH  070%=      5-min Rain = 0
KCL2 270235Z 15015KT 25/19 A299 RMK A01 T02490190  RH  069%=      5-min Rain = 0
KCL2 270236Z 16014KT 25/19 A299 RMK A01 T02490189  RH  069%=      5-min Rain = 0
KCL2 270237Z 15013KT 25/19 A299 RMK A01 T02500190  RH  069%=      5-min Rain = 0
KCL2 270238Z 16016KT 25/19 A299 RMK A01 T02490190  RH  069%=      5-min Rain = 0
KCL2 270239Z 16011KT 25/19 A299 RMK A01 T02500190  RH  069%=      5-min Rain = 0
KCL2 270240Z 15014KT 25/19 A299 RMK A01 T02490190  RH  070%=      5-min Rain = 0
KCL2 270241Z 16012KT 25/19 A299 RMK A01 T02490190  RH  070%=      5-min Rain = 0
KCL2 270242Z 16014KT 25/19 A299 RMK A01 T02490190  RH  070%=      5-min Rain = 0
KCL2 270243Z 15016KT 25/19 A299 RMK A01 T02480190  RH  070%=      5-min Rain = 0
KCL2 270244Z 15015KT 25/19 A299 RMK A01 T02480189  RH  070%=      5-min Rain = 0
KCL2 270245Z 15013KT 25/19 A299 RMK A01 T02490189  RH  070%=      5-min Rain = 0
KCL2 270246Z 15016KT 25/19 A299 RMK A01 T02490189  RH  070%=      5-min Rain = 0
KCL2 270247Z 15014KT 25/19 A299 RMK A01 T02490189  RH  070%=      5-min Rain = 0
KCL2 270248Z 15013KT 25/19 A299 RMK A01 T02490190  RH  070%=      5-min Rain = 0
KCL2 270249Z 15013KT 25/19 A299 RMK A01 T02480189  RH  070%=      5-min Rain = 0
KCL2 270250Z 15018G26KT 25/19 A299 RMK A01 T02480189  RH  070%=      5-min Rain = 0
KCL2 270251Z 15016KT 25/19 A299 RMK A01 T02490189  RH  069%=      5-min Rain = 0
KCL2 270252Z 16013KT 25/19 A299 RMK A01 T02490189  RH  069%=      5-min Rain = 0
KCL2 270253Z 16013KT 25/19 A299 RMK A01 T02490189  RH  069%=      5-min Rain = 0
KCL2 270254Z 16012KT 25/19 A299 RMK A01 T02480189  RH  070%=      5-min Rain = 0
KCL2 270255Z 15016G21KT 25/19 A299 RMK A01 T02480189  RH  070%=      5-min Rain = 0
KCL2 270256Z 16016KT 25/19 A299 RMK A01 T02480189  RH  070%=      5-min Rain = 0
KCL2 270257Z 15015G23KT 25/19 A299 RMK A01 T02480189  RH  069%=      5-min Rain = 0
KCL2 270258Z 15013G20KT 25/19 A299 RMK A01 T02480188  RH  069%=      5-min Rain = 0
KCL2 270259Z 15013KT 25/19 A299 RMK A01 T02480189  RH  070%=      5-min Rain = 0
KCL2 270300Z 15014KT 25/19 A299 RMK A01 T02480189  RH  070%=      5-min Rain = 0
KCL2 270301Z 16016G22KT 25/19 A299 RMK A01 T02480189  RH  070%=      5-min Rain = 0
KCL2 270302Z 15016G21KT 25/19 A299 RMK A01 T02480189  RH  070%=      5-min Rain = 0
KCL2 270303Z 15014KT 25/19 A299 RMK A01 T02480188  RH  070%=      5-min Rain = 0
KCL2 270304Z 16015KT 25/19 A299 RMK A01 T02480189  RH  070%=      5-min Rain = 0
KCL2 270305Z 16017G24KT 25/19 A299 RMK A01 T02480189  RH  070%=      5-min Rain = 0
KCL2 270306Z 16016KT 25/19 A299 RMK A01 T02470188  RH  070%=      5-min Rain = 0
KCL2 270307Z 16017KT 25/19 A299 RMK A01 T02470188  RH  070%=      5-min Rain = 0
KCL2 270308Z 16016KT 25/19 A299 RMK A01 T02470188  RH  070%=      5-min Rain = 0
KCL2 270309Z 16016KT 25/19 A299 RMK A01 T02470188  RH  070%=      5-min Rain = 0
KCL2 270310Z 15011G16KT 25/19 A299 RMK A01 T02470189  RH  070%=      5-min Rain = 0
KCL2 270311Z 15014KT 25/19 A299 RMK A01 T02470189  RH  070%=      5-min Rain = 0
KCL2 270312Z 16013KT 25/19 A299 RMK A01 T02460189  RH  070%=      5-min Rain = 0
KCL2 270313Z 15015KT 25/19 A299 RMK A01 T02460189  RH  071%=      5-min Rain = 0
KCL2 270314Z 16016KT 25/19 A299 RMK A01 T02460189  RH  071%=      5-min Rain = 0
KCL2 270315Z 16014G20KT 25/19 A299 RMK A01 T02450188  RH  070%=      5-min Rain = 0
KCL2 270316Z 16015G22KT 25/19 A299 RMK A01 T02450188  RH  070%=      5-min Rain = 0
KCL2 270317Z 16014KT 25/19 A299 RMK A01 T02460188  RH  070%=      5-min Rain = 0
KCL2 270318Z 16018KT 25/19 A299 RMK A01 T02450188  RH  070%=      5-min Rain = 0
KCL2 270319Z 17014KT 25/19 A299 RMK A01 T02460188  RH  070%=      5-min Rain = 0
KCL2 270320Z 16017KT 25/19 A299 RMK A01 T02460188  RH  070%=      5-min Rain = 0
KCL2 270321Z 16016KT 25/19 A299 RMK A01 T02460188  RH  070%=      5-min Rain = 0
KCL2 270322Z 16015G20KT 25/19 A299 RMK A01 T02460188  RH  070%=      5-min Rain = 0
KCL2 270323Z 16016KT 25/19 A299 RMK A01 T02470189  RH  070%=      5-min Rain = 0
KCL2 270324Z 15016KT 25/19 A299 RMK A01 T02460188  RH  070%=      5-min Rain = 0
KCL2 270325Z 16014KT 25/19 A299 RMK A01 T02460188  RH  070%=      5-min Rain = 0
KCL2 270326Z 16012G18KT 25/19 A299 RMK A01 T02460189  RH  070%=      5-min Rain = 0
KCL2 270327Z 17016KT 25/19 A299 RMK A01 T02460188  RH  070%=      5-min Rain = 0
KCL2 270328Z 16020KT 25/19 A299 RMK A01 T02460188  RH  070%=      5-min Rain = 0
KCL2 270329Z 16018G25KT 25/19 A299 RMK A01 T02460188  RH  070%=      5-min Rain = 0
KCL2 270330Z 15020KT 25/19 A299 RMK A01 T02460187  RH  070%=      5-min Rain = 0
KCL2 270331Z 16015KT 25/19 A299 RMK A01 T02470188  RH  070%=      5-min Rain = 0
KCL2 270332Z 16017G23KT 25/19 A299 RMK A01 T02470188  RH  070%=      5-min Rain = 0
KCL2 270333Z 16013KT 25/19 A299 RMK A01 T02470188  RH  070%=      5-min Rain = 0
KCL2 270334Z 17012G18KT 25/19 A299 RMK A01 T02460188  RH  070%=      5-min Rain = 0
KCL2 270335Z 16012KT 25/19 A299 RMK A01 T02450188  RH  071%=      5-min Rain = 0
KCL2 270336Z 16013G18KT 25/19 A2991 RMK A01 T02450188  RH  071%=      5-min Rain = 0
KCL2 270337Z 16017KT 24/19 A2991 RMK A01 T02440188  RH  071%=      5-min Rain = 0
KCL2 270338Z 16018KT 25/19 A2991 RMK A01 T02450187  RH  070%=      5-min Rain = 0
KCL2 270339Z 16017G24KT 25/19 A2991 RMK A01 T02450188  RH  070%=      5-min Rain = 0
KCL2 270340Z 16018G23KT 25/19 A2991 RMK A01 T02460187  RH  070%=      5-min Rain = 0
KCL2 270341Z 16014KT 25/19 A2991 RMK A01 T02460187  RH  070%=      5-min Rain = 0
KCL2 270342Z 16016KT 25/19 A2991 RMK A01 T02460188  RH  070%=      5-min Rain = 0
KCL2 270343Z 16015KT 25/19 A2991 RMK A01 T02460188  RH  070%=      5-min Rain = 0
KCL2 270344Z 16015KT 25/19 A2991 RMK A01 T02460188  RH  070%=      5-min Rain = 0
KCL2 270345Z 16017KT 25/19 A2991 RMK A01 T02450188  RH  070%=      5-min Rain = 0
KCL2 270346Z 16013KT 25/19 A2991 RMK A01 T02450188  RH  070%=      5-min Rain = 0
KCL2 270347Z 16014G19KT 25/19 A2991 RMK A01 T02450188  RH  070%=      5-min Rain = 0
KCL2 270348Z 15017G22KT 25/19 A2991 RMK A01 T02450188  RH  071%=      5-min Rain = 0
KCL2 270349Z 16016G22KT 25/19 A299 RMK A01 T02450187  RH  070%=      5-min Rain = 0
KCL2 270350Z 16015KT 24/19 A299 RMK A01 T02440187  RH  070%=      5-min Rain = 0
KCL2 270351Z 16013KT 25/19 A2991 RMK A01 T02450187  RH  070%=      5-min Rain = 0
KCL2 270352Z 16014G19KT 25/19 A2991 RMK A01 T02450188  RH  071%=      5-min Rain = 0
KCL2 270353Z 15015KT 24/19 A299 RMK A01 T02440188  RH  071%=      5-min Rain = 0
KCL2 270354Z 16015KT 24/19 A299 RMK A01 T02440188  RH  071%=      5-min Rain = 0
KCL2 270355Z 16013G18KT 24/19 A299 RMK A01 T02440187  RH  071%=      5-min Rain = 0
KCL2 270356Z 16013G18KT 24/19 A299 RMK A01 T02430187  RH  071%=      5-min Rain = 0
KCL2 270357Z 15013KT 24/19 A299 RMK A01 T02440188  RH  071%=      5-min Rain = 0
KCL2 270358Z 16015G20KT 24/19 A299 RMK A01 T02440188  RH  071%=      5-min Rain = 0
KCL2 270359Z 16014KT 24/19 A299 RMK A01 T02440187  RH  071%=      5-min Rain = 0
KCL2 270400Z 15013KT 24/19 A299 RMK A01 T02430187  RH  071%=      5-min Rain = 0
KCL2 270401Z 15015KT 24/19 A299 RMK A01 T02430187  RH  071%=      5-min Rain = 0
KCL2 270402Z 16016KT 24/19 A299 RMK A01 T02430187  RH  071%=      5-min Rain = 0
KCL2 270403Z 16017G22KT 24/19 A299 RMK A01 T02430186  RH  071%=      5-min Rain = 0
KCL2 270404Z 16017KT 24/19 A299 RMK A01 T02440187  RH  070%=      5-min Rain = 0
KCL2 270405Z 15013G18KT 25/19 A299 RMK A01 T02450187  RH  070%=      5-min Rain = 0
KCL2 270406Z 15016G21KT 24/19 A299 RMK A01 T02440187  RH  070%=      5-min Rain = 0
KCL2 270407Z 15013KT 24/19 A299 RMK A01 T02440187  RH  070%=      5-min Rain = 0
KCL2 270408Z 15012KT 24/19 A299 RMK A01 T02440187  RH  070%=      5-min Rain = 0
KCL2 270409Z 15012KT 24/19 A299 RMK A01 T02440187  RH  071%=      5-min Rain = 0
KCL2 270410Z 15015KT 24/19 A299 RMK A01 T02430187  RH  071%=      5-min Rain = 0
KCL2 270411Z 15014KT 24/19 A299 RMK A01 T02430187  RH  071%=      5-min Rain = 0
KCL2 270412Z 15014KT 24/19 A299 RMK A01 T02430187  RH  071%=      5-min Rain = 0
KCL2 270413Z 16016KT 24/19 A299 RMK A01 T02430187  RH  071%=      5-min Rain = 0
KCL2 270414Z 15014KT 24/19 A299 RMK A01 T02430187  RH  071%=      5-min Rain = 0
KCL2 270415Z 15013G18KT 24/19 A299 RMK A01 T02430187  RH  071%=      5-min Rain = 0
KCL2 270416Z 15013KT 24/19 A299 RMK A01 T02430188  RH  071%=      5-min Rain = 0
KCL2 270417Z 15013KT 24/19 A299 RMK A01 T02420187  RH  071%=      5-min Rain = 0
KCL2 270418Z 15014KT 24/19 A2989 RMK A01 T02420187  RH  071%=      5-min Rain = 0
KCL2 270419Z 15016KT 24/19 A2989 RMK A01 T02420187  RH  071%=      5-min Rain = 0
KCL2 270420Z 15014G19KT 24/19 A2989 RMK A01 T02420187  RH  071%=      5-min Rain = 0
KCL2 270421Z 14015KT 24/19 A2989 RMK A01 T02420187  RH  071%=      5-min Rain = 0
KCL2 270422Z 15015KT 24/19 A2989 RMK A01 T02420187  RH  071%=      5-min Rain = 0
KCL2 270423Z 15015KT 24/19 A2989 RMK A01 T02420187  RH  071%=      5-min Rain = 0
KCL2 270424Z 15014KT 24/19 A2989 RMK A01 T02420187  RH  072%=      5-min Rain = 0
KCL2 270425Z 15015KT 24/19 A2989 RMK A01 T02410187  RH  072%=      5-min Rain = 0
KCL2 270426Z 15015KT 24/19 A2989 RMK A01 T02410187  RH  072%=      5-min Rain = 0
KCL2 270427Z 14014G19KT 24/19 A2989 RMK A01 T02420187  RH  072%=      5-min Rain = 0
KCL2 270428Z 14015G20KT 24/19 A2989 RMK A01 T02410187  RH  072%=      5-min Rain = 0
KCL2 270429Z 15016KT 24/19 A2989 RMK A01 T02410187  RH  072%=      5-min Rain = 0
KCL2 270430Z 15015KT 24/19 A2989 RMK A01 T02410187  RH  072%=      5-min Rain = 0
KCL2 270431Z 15013G19KT 24/19 A299 RMK A01 T02410187  RH  072%=      5-min Rain = 0
KCL2 270432Z 15012KT 24/19 A299 RMK A01 T02400187  RH  072%=      5-min Rain = 0
KCL2 270433Z 16013G18KT 24/19 A299 RMK A01 T02400188  RH  072%=      5-min Rain = 0
KCL2 270434Z 16014KT 24/19 A299 RMK A01 T02400187  RH  072%=      5-min Rain = 0
KCL2 270435Z 16016KT 24/19 A299 RMK A01 T02400187  RH  072%=      5-min Rain = 0
KCL2 270436Z 16013G18KT 24/19 A299 RMK A01 T02400187  RH  072%=      5-min Rain = 0
KCL2 270437Z 15015KT 24/19 A299 RMK A01 T02400187  RH  072%=      5-min Rain = 0
KCL2 270438Z 15013KT 24/19 A299 RMK A01 T02400187  RH  072%=      5-min Rain = 0
KCL2 270439Z 15015G20KT 24/19 A299 RMK A01 T02400187  RH  072%=      5-min Rain = 0
KCL2 270440Z 16014KT 24/19 A2989 RMK A01 T02390187  RH  073%=      5-min Rain = 0
KCL2 270441Z 16014KT 24/19 A299 RMK A01 T02390187  RH  073%=      5-min Rain = 0
KCL2 270442Z 16015KT 24/19 A299 RMK A01 T02390187  RH  073%=      5-min Rain = 0
KCL2 270443Z 16013G19KT 24/19 A299 RMK A01 T02390187  RH  073%=      5-min Rain = 0
KCL2 270444Z 16015KT 24/19 A2989 RMK A01 T02390187  RH  073%=      5-min Rain = 0
KCL2 270445Z 15015G20KT 24/19 A299 RMK A01 T02390187  RH  073%=      5-min Rain = 0
KCL2 270446Z 16014KT 24/19 A299 RMK A01 T02390187  RH  073%=      5-min Rain = 0
KCL2 270447Z 15013KT 24/19 A299 RMK A01 T02390187  RH  073%=      5-min Rain = 0
KCL2 270448Z 16013KT 24/19 A299 RMK A01 T02390187  RH  073%=      5-min Rain = 0
KCL2 270449Z 16013KT 24/19 A299 RMK A01 T02380187  RH  073%=      5-min Rain = 0
KCL2 270450Z 16017G22KT 24/19 A299 RMK A01 T02380187  RH  073%=      5-min Rain = 0
KCL2 270451Z 15015G22KT 24/19 A2989 RMK A01 T02380187  RH  073%=      5-min Rain = 0
KCL2 270452Z 16015KT 24/19 A2989 RMK A01 T02380187  RH  073%=      5-min Rain = 0
KCL2 270453Z 16013KT 24/19 A2989 RMK A01 T02380187  RH  073%=      5-min Rain = 0
KCL2 270454Z 15011KT 24/19 A2989 RMK A01 T02380188  RH  073%=      5-min Rain = 0
KCL2 270455Z 16015KT 24/19 A2989 RMK A01 T02370187  RH  074%=      5-min Rain = 0
KCL2 270456Z 16016KT 24/19 A2989 RMK A01 T02370187  RH  073%=      5-min Rain = 0
KCL2 270457Z 15018KT 24/19 A2989 RMK A01 T02380187  RH  073%=      5-min Rain = 0
KCL2 270458Z 16013KT 24/19 A299 RMK A01 T02380187  RH  073%=      5-min Rain = 0
KCL2 270459Z 16015KT 24/19 A299 RMK A01 T02380187  RH  073%=      5-min Rain = 0

Page generated in 0.0462 seconds.